Provisional Data: Chemung River at West Elmira, NY


Please select a monitoring station.
Please select start date.
Please select start date.

Toggle Unit: C/F Toggle Unit: C/F
Sample Time Temperature (C) Temperature (F) Specific Conductivity (mS/cm) pH   Turbidity (NTU+) DO (mg/L)
12/23/2022 12:00:00 AM 0.81 33.458 0.349 8.07 3.72 14.26
12/23/2022 12:15:00 AM 0.81 33.458 0.349 8.07 3.8 14.24
12/23/2022 12:30:00 AM 0.82 33.476 0.35 8.06 4.02 14.2
12/23/2022 12:45:00 AM 0.82 33.476 0.351 8.06 4.18 14.17
12/23/2022 1:00:00 AM 0.82 33.476 0.351 8.05 4.82 14.17
12/23/2022 1:15:00 AM 0.82 33.476 0.352 8.05 5.52 14.14
12/23/2022 1:30:00 AM 0.83 33.494 0.353 8.04 6.47 14.13
12/23/2022 1:45:00 AM 0.83 33.494 0.354 8.05 7.68 14.12
12/23/2022 2:00:00 AM 0.84 33.512 0.357 8.03 8.66 14.1
12/23/2022 2:15:00 AM 0.83 33.494 0.362 8.02 10.52 14.08
12/23/2022 2:30:00 AM 0.82 33.476 0.367 8.01 16.17 14.06
12/23/2022 2:45:00 AM 0.82 33.476 0.371 7.99 23.1 14.04
12/23/2022 3:00:00 AM 0.79 33.422 0.375 7.97 35.48 14.01
12/23/2022 3:15:00 AM 0.78 33.404 0.379 7.96 43.12 14.01
12/23/2022 3:30:00 AM 0.76 33.368 0.383 7.95 47.32 14
12/23/2022 3:45:00 AM 0.75 33.35 0.384 7.94 47.51 13.99
12/23/2022 4:00:00 AM 0.76 33.368 0.382 7.92 50.89 13.96
12/23/2022 4:15:00 AM 0.77 33.386 0.379 7.93 50.46 13.95
12/23/2022 4:30:00 AM 0.79 33.422 0.377 7.93 43.25 13.94
12/23/2022 4:45:00 AM 0.81 33.458 0.374 7.92 37.86 13.92
12/23/2022 5:00:00 AM 0.84 33.512 0.373 7.93 34.72 13.9
12/23/2022 5:15:00 AM 0.86 33.548 0.371 7.93 36.58 13.86
12/23/2022 5:30:00 AM 0.88 33.584 0.37 7.94 31.94 13.85
12/23/2022 5:45:00 AM 0.89 33.602 0.369 7.93 32.15 13.84
12/23/2022 6:00:00 AM 0.9 33.62 0.369 7.94 29.77 13.8
12/23/2022 6:15:00 AM 0.91 33.638 0.368 7.94 28.48 13.8
12/23/2022 6:30:00 AM 0.91 33.638 0.368 7.94 24.56 13.77
12/23/2022 6:45:00 AM 0.91 33.638 0.367 7.94 23.45 13.76
12/23/2022 7:00:00 AM 0.91 33.638 0.368 7.93 24.45 13.74
12/23/2022 7:15:00 AM 0.91 33.638 0.366 7.93 23.12 13.74
12/23/2022 7:30:00 AM 0.91 33.638 0.366 7.93 21.7 13.71
12/23/2022 7:45:00 AM 0.91 33.638 0.366 7.92 20.17 13.72
12/23/2022 8:00:00 AM 0.91 33.638 0.367 7.92 20.7 13.69
12/23/2022 8:15:00 AM 0.92 33.656 0.367 7.92 19.39 13.69
12/23/2022 8:30:00 AM 0.93 33.674 0.368 7.92 16.44 13.69
12/23/2022 8:45:00 AM 0.94 33.692 0.368 7.92 16.27 13.69
12/23/2022 9:00:00 AM 0.96 33.728 0.369 7.92 15.67 13.7
12/23/2022 9:15:00 AM 0.98 33.764 0.369 7.92 14.93 13.7
12/23/2022 9:30:00 AM 1.01 33.818 0.37 7.93 14.23 13.71
12/23/2022 9:45:00 AM 1.04 33.872 0.369 7.94 14.62 13.73
12/23/2022 10:00:00 AM 1.07 33.926 0.369 7.94 13.48 13.66
12/23/2022 10:15:00 AM 1.09 33.962 0.368 7.96 13.31 13.75
12/23/2022 10:30:00 AM 1.12 34.016 0.369 7.96 14.28 13.77
12/23/2022 10:45:00 AM 1.1 33.98 0.371 7.97 15.6 13.79
12/23/2022 11:00:00 AM 1.1 33.98 0.374 7.98 17.22 13.8
12/23/2022 11:15:00 AM 1.08 33.944 0.376 7.98 18.02 13.8
12/23/2022 11:30:00 AM 1.07 33.926 0.38 7.97 17.59 13.8
12/23/2022 11:45:00 AM 1.06 33.908 0.382 7.99 16.64 13.79
12/23/2022 12:00:00 PM 1.03 33.854 0.385 7.98 17.45 13.78
12/23/2022 12:15:00 PM 1 33.8 0.385 7.98 19.89 13.77
12/23/2022 12:30:00 PM 0.97 33.746 0.385 7.97 19 13.75
12/23/2022 12:45:00 PM 0.94 33.692 0.382 7.98 21.32 13.74
12/23/2022 1:00:00 PM 0.91 33.638 0.38 7.97 24.62 13.74
12/23/2022 1:15:00 PM 0.89 33.602 0.379 7.97 26.15 13.74
12/23/2022 1:30:00 PM 0.88 33.584 0.38 7.97 26.35 13.73
12/23/2022 1:45:00 PM 0.88 33.584 0.382 7.97 28.22 13.73
12/23/2022 2:00:00 PM 0.89 33.602 0.382 7.96 28.5 13.71
12/23/2022 2:15:00 PM 0.88 33.584 0.382 7.96 28.65 13.71
12/23/2022 2:30:00 PM 0.86 33.548 0.381 7.96 27.88 13.69
12/23/2022 2:45:00 PM 0.85 33.53 0.38 7.95 29.26 13.69
12/23/2022 3:00:00 PM 0.81 33.458 0.376 7.95 30.88 13.68
12/23/2022 3:15:00 PM 0.78 33.404 0.371 7.94 34.75 13.68
12/23/2022 3:30:00 PM 0.75 33.35 0.365 7.93 38.42 13.66
12/23/2022 3:45:00 PM 0.71 33.278 0.359 7.92 42.74 13.64
12/23/2022 4:00:00 PM 0.67 33.206 0.353 7.91 45.13 13.63
12/23/2022 4:15:00 PM 0.63 33.134 0.349 7.9 49.24 13.62
12/23/2022 4:30:00 PM 0.59 33.062 0.346 7.9 57.35 13.6
12/23/2022 4:45:00 PM 0.56 33.008 0.341 7.88 63.48 13.6
12/23/2022 5:00:00 PM 0.53 32.954 0.338 7.87 64.39 13.59
12/23/2022 5:15:00 PM 0.51 32.918 0.332 7.85 65.8 13.58
12/23/2022 5:30:00 PM 0.48 32.864 0.323 7.83 65.26 13.58
12/23/2022 5:45:00 PM 0.43 32.774 0.313 7.83 68.49 13.58
12/23/2022 6:00:00 PM 0.38 32.684 0.301 7.82 74.04 13.58
12/23/2022 6:15:00 PM 0.34 32.612 0.291 7.8 76.97 13.58
12/23/2022 6:30:00 PM 0.29 32.522 0.281 7.79 82.08 13.6
12/23/2022 6:45:00 PM 0.24 32.432 0.273 7.79 82.74 13.6
12/23/2022 7:00:00 PM 0.19 32.342 0.264 7.77 86.46 13.61
12/23/2022 7:15:00 PM 0.16 32.288 0.257 7.75 87.41 13.62
12/23/2022 7:30:00 PM 0.13 32.234 0.248 7.73 87.75 13.63
12/23/2022 7:45:00 PM 0.1 32.18 0.242 7.7 89.23 13.64
12/23/2022 8:00:00 PM 0.07 32.126 0.236 7.71 88.67 13.65
12/23/2022 8:15:00 PM 0.04 32.072 0.232 7.7 88.74 13.67
12/23/2022 8:30:00 PM 0.02 32.036 0.228 7.7 84 13.69
12/23/2022 8:45:00 PM 0 32 0.225 7.68 84.97 13.62
12/23/2022 9:00:00 PM -0.01 31.982 0.222 7.69 84.49 13.72
12/23/2022 9:15:00 PM -0.02 31.964 0.221 7.69 81.7 13.75
12/23/2022 9:30:00 PM -0.02 31.964 0.219 7.69 79.98 13.77
12/23/2022 9:45:00 PM -0.02 31.964 0.219 7.69 76.58 13.79
12/23/2022 10:00:00 PM -0.02 31.964 0.217 7.68 73.46 13.81
12/23/2022 10:15:00 PM -0.02 31.964 0.218 7.68 70.57 13.84
12/23/2022 10:30:00 PM -0.02 31.964 0.217 7.69 68.82 13.85
12/23/2022 10:45:00 PM -0.02 31.964 0.217 7.69 66.98 13.88
12/23/2022 11:00:00 PM -0.02 31.964 0.216 7.69 65.1 13.9
12/23/2022 11:15:00 PM -0.02 31.964 0.216 7.68 60.09 13.92
12/23/2022 11:30:00 PM -0.02 31.964 0.215 7.7 59.16 13.94
12/23/2022 11:45:00 PM -0.02 31.964 0.215 7.7 56.78 13.96
12/24/2022 12:00:00 AM -0.02 31.964 0.214 7.69 54.19 13.98
12/24/2022 12:15:00 AM -0.02 31.964 0.214 7.7 52.74 14
12/24/2022 12:30:00 AM -0.02 31.964 0.214 7.71 51.67 14.02
12/24/2022 12:45:00 AM -0.02 31.964 0.214 7.7 48.31 14.04
12/24/2022 1:00:00 AM -0.02 31.964 0.214 7.7 49.97 14.06
12/24/2022 1:15:00 AM -0.02 31.964 0.215 7.71 46.95 14.07
12/24/2022 1:30:00 AM -0.02 31.964 0.214 7.71 45.42 14.09
12/24/2022 1:45:00 AM -0.02 31.964 0.215 7.71 44.93 14.1
12/24/2022 2:00:00 AM -0.02 31.964 0.214 7.71 42.28 14.12
12/24/2022 2:15:00 AM -0.02 31.964 0.215 7.71 41.63 14.13
12/24/2022 2:30:00 AM -0.02 31.964 0.214 7.7 42.72 14.14
12/24/2022 2:45:00 AM -0.02 31.964 0.215 7.7 38.6 14.06
12/24/2022 3:00:00 AM -0.02 31.964 0.214 7.71 37.22 14.06
12/24/2022 3:15:00 AM -0.02 31.964 0.215 7.69 35.37 14.16
12/24/2022 3:30:00 AM -0.02 31.964 0.215 7.71 35.28 14.19
12/24/2022 3:45:00 AM -0.02 31.964 0.216 7.7 35.16 14.11
12/24/2022 4:00:00 AM -0.02 31.964 0.215 7.7 33.95 14.11
12/24/2022 4:15:00 AM -0.02 31.964 0.217 7.7 32.3 14.13
12/24/2022 4:30:00 AM -0.02 31.964 0.217 7.7 31.18 14.13
12/24/2022 4:45:00 AM -0.02 31.964 0.218 7.7 30.41 14.23
12/24/2022 5:00:00 AM -0.02 31.964 0.217 7.7 30.68 14.26
12/24/2022 5:15:00 AM -0.02 31.964 0.219 7.7 29.75 14.27
12/24/2022 5:30:00 AM -0.02 31.964 0.219 7.7 28.2 14.27
12/24/2022 5:45:00 AM -0.02 31.964 0.22 7.69 27.33 14.29
12/24/2022 6:00:00 AM -0.02 31.964 0.221 7.71 39.12 14.29
12/24/2022 6:15:00 AM -0.02 31.964 0.222 7.7 29.74 14.3
12/24/2022 6:30:00 AM -0.02 31.964 0.223 7.71 26.9 14.3
12/24/2022 6:45:00 AM -0.02 31.964 0.224 7.71 26.53 14.31
12/24/2022 7:00:00 AM -0.02 31.964 0.224 7.71 26.41 14.31
12/24/2022 7:15:00 AM -0.02 31.964 0.226 7.71 25.15 14.32
12/24/2022 7:30:00 AM -0.02 31.964 0.226 7.71 24.63 14.32
12/24/2022 7:45:00 AM -0.02 31.964 0.227 7.71 25.08 14.32
12/24/2022 8:00:00 AM -0.02 31.964 0.227 7.71 23.29 14.33
12/24/2022 8:15:00 AM -0.02 31.964 0.227 7.7 23.3 14.33
12/24/2022 8:30:00 AM -0.02 31.964 0.227 7.72 22.55 14.34
12/24/2022 8:45:00 AM -0.02 31.964 0.229 7.72 22.65 14.35
12/24/2022 9:00:00 AM -0.02 31.964 0.229 7.72 22.24 14.35
12/24/2022 9:15:00 AM -0.02 31.964 0.23 7.71 21.68 14.36
12/24/2022 9:30:00 AM -0.02 31.964 0.23 7.74 21.77 14.38
12/24/2022 9:45:00 AM -0.02 31.964 0.231 7.74 20.91 14.38
12/24/2022 10:00:00 AM -0.02 31.964 0.23 7.74 19.68 14.39
12/24/2022 10:15:00 AM -0.02 31.964 0.231 7.74 19.64 14.4
12/24/2022 10:30:00 AM -0.02 31.964 0.231 7.74 19.33 14.4
12/24/2022 10:45:00 AM -0.02 31.964 0.231 7.74 19.04 14.42
12/24/2022 11:00:00 AM -0.02 31.964 0.232 7.74 18.86 14.43
12/24/2022 11:15:00 AM -0.02 31.964 0.232 7.74 18.47 14.44
12/24/2022 11:30:00 AM -0.02 31.964 0.232 7.75 18.89 14.45
12/24/2022 11:45:00 AM -0.02 31.964 0.232 7.74 18.12 14.46
12/24/2022 12:00:00 PM -0.02 31.964 0.232 7.76 18.03 14.47
12/24/2022 12:15:00 PM -0.02 31.964 0.232 7.75 18.36 14.48
12/24/2022 12:30:00 PM -0.02 31.964 0.232 7.76 18.77 14.49
12/24/2022 12:45:00 PM -0.01 31.982 0.232 7.76 17.69 14.49
12/24/2022 1:00:00 PM -0.02 31.964 0.232 7.76 18.04 14.5
12/24/2022 1:15:00 PM -0.02 31.964 0.233 7.75 17.4 14.5
12/24/2022 1:30:00 PM -0.02 31.964 0.232 7.76 17.32 14.51
12/24/2022 1:45:00 PM -0.02 31.964 0.232 7.77 17.62 14.52
12/24/2022 2:00:00 PM -0.02 31.964 0.233 7.76 17.34 14.52
12/24/2022 2:15:00 PM -0.02 31.964 0.233 7.75 17.67 14.52
12/24/2022 2:30:00 PM -0.02 31.964 0.232 7.77 17.32 14.53
12/24/2022 2:45:00 PM -0.02 31.964 0.233 7.78 17.31 14.53
12/24/2022 3:00:00 PM -0.02 31.964 0.233 7.77 15.99 14.53
12/24/2022 3:15:00 PM -0.02 31.964 0.233 7.76 15.97 14.54
12/24/2022 3:30:00 PM -0.02 31.964 0.232 7.77 15.32 14.54
12/24/2022 3:45:00 PM -0.02 31.964 0.233 7.76 14.86 14.54
12/24/2022 4:00:00 PM -0.02 31.964 0.233 7.77 14.74 14.55
12/24/2022 4:15:00 PM -0.02 31.964 0.234 7.76 14.85 14.54
12/24/2022 4:30:00 PM -0.02 31.964 0.233 7.77 14.06 14.55
12/24/2022 4:45:00 PM -0.01 31.982 0.234 7.77 14.04 14.55
12/24/2022 5:00:00 PM -0.02 31.964 0.234 7.77 13.94 14.54
12/24/2022 5:15:00 PM -0.02 31.964 0.235 7.76 13.42 14.54
12/24/2022 5:30:00 PM -0.02 31.964 0.234 7.76 13.54 14.52
12/24/2022 5:45:00 PM -0.02 31.964 0.235 7.74 13.69 14.52
12/24/2022 6:00:00 PM -0.01 31.982 0.235 7.76 12.82 14.51
12/24/2022 6:15:00 PM -0.01 31.982 0.236 7.75 12.89 14.51
12/24/2022 6:30:00 PM -0.01 31.982 0.236 7.74 13.25 14.51
12/24/2022 6:45:00 PM -0.01 31.982 0.236 7.75 12.97 14.5
12/24/2022 7:00:00 PM -0.01 31.982 0.237 7.75 13 14.5
12/24/2022 7:15:00 PM -0.01 31.982 0.236 7.75 13.2 14.49
12/24/2022 7:30:00 PM -0.01 31.982 0.237 7.75 13.47 14.5
12/24/2022 7:45:00 PM -0.01 31.982 0.237 7.75 13.18 14.5
12/24/2022 8:00:00 PM -0.01 31.982 0.238 7.75 13.58 14.5
12/24/2022 8:15:00 PM -0.01 31.982 0.237 7.75 13.12 14.5
12/24/2022 8:30:00 PM -0.01 31.982 0.238 7.74 13.3 14.49
12/24/2022 8:45:00 PM -0.02 31.964 0.238 7.74 13.52 14.49
12/24/2022 9:00:00 PM -0.02 31.964 0.24 7.74 13.38 14.49
12/24/2022 9:15:00 PM -0.02 31.964 0.239 7.74 13.59 14.39
12/24/2022 9:30:00 PM -0.01 31.982 0.241 7.74 13.41 14.46
12/24/2022 9:45:00 PM -0.02 31.964 0.24 7.74 13.56 14.47
12/24/2022 10:00:00 PM -0.01 31.982 0.242 7.75 13.78 14.47
12/24/2022 10:15:00 PM -0.01 31.982 0.242 7.74 13.24 14.46
12/24/2022 10:30:00 PM -0.01 31.982 0.243 7.73 13.62 14.46
12/24/2022 10:45:00 PM -0.01 31.982 0.243 7.74 13.7 14.46
12/24/2022 11:00:00 PM -0.02 31.964 0.244 7.75 13.57 14.45
12/24/2022 11:15:00 PM -0.02 31.964 0.244 7.74 13.68 14.45
12/24/2022 11:30:00 PM -0.02 31.964 0.246 7.73 13.88 14.45
12/24/2022 11:45:00 PM -0.02 31.964 0.246 7.74 13.66 14.44
12/25/2022 12:00:00 AM -0.02 31.964 0.247 7.74 13.76 14.44
12/25/2022 12:15:00 AM -0.02 31.964 0.248 7.73 14.42 14.44
12/25/2022 12:30:00 AM -0.02 31.964 0.249 7.74 13.85 14.44
12/25/2022 12:45:00 AM -0.02 31.964 0.249 7.74 13.94 14.43
12/25/2022 1:00:00 AM -0.02 31.964 0.251 7.72 13.82 14.43
12/25/2022 1:15:00 AM -0.02 31.964 0.251 7.74 14.07 14.42
12/25/2022 1:30:00 AM -0.02 31.964 0.253 7.73 13.68 14.43
12/25/2022 1:45:00 AM -0.02 31.964 0.253 7.74 15.19 14.42
12/25/2022 2:00:00 AM -0.02 31.964 0.254 7.74 14.2 14.42
12/25/2022 2:15:00 AM -0.02 31.964 0.254 7.74 14.25 14.42
12/25/2022 2:30:00 AM -0.02 31.964 0.255 7.72 14.22 14.41
12/25/2022 2:45:00 AM -0.02 31.964 0.256 7.74 14.4 14.41
12/25/2022 3:00:00 AM -0.02 31.964 0.258 7.74 14.35 14.41
12/25/2022 3:15:00 AM -0.02 31.964 0.258 7.74 14.02 14.4
12/25/2022 3:30:00 AM -0.02 31.964 0.259 7.74 14.44 14.4
12/25/2022 3:45:00 AM -0.02 31.964 0.26 7.74 14.14 14.4
12/25/2022 4:00:00 AM -0.02 31.964 0.261 7.74 14.2 14.39
12/25/2022 4:15:00 AM -0.02 31.964 0.262 7.74 13.79 14.38
12/25/2022 4:30:00 AM -0.02 31.964 0.263 7.74 14.64 14.37
12/25/2022 4:45:00 AM -0.02 31.964 0.262 7.74 14.6 14.37
12/25/2022 5:00:00 AM -0.02 31.964 0.264 7.74 14.54 14.36
12/25/2022 5:15:00 AM -0.02 31.964 0.263 7.74 14.18 14.36
12/25/2022 5:30:00 AM -0.02 31.964 0.265 7.73 14.28 14.35
12/25/2022 5:45:00 AM -0.02 31.964 0.264 7.74 14.79 14.35
12/25/2022 6:00:00 AM -0.02 31.964 0.265 7.74 14.66 14.34
12/25/2022 6:15:00 AM -0.02 31.964 0.265 7.74 15.1 14.34
12/25/2022 6:30:00 AM -0.02 31.964 0.265 7.74 14.54 14.33
12/25/2022 6:45:00 AM -0.02 31.964 0.265 7.74 14.7 14.33
12/25/2022 7:00:00 AM -0.02 31.964 0.265 7.74 14.81 14.32
12/25/2022 7:15:00 AM -0.02 31.964 0.264 7.74 14.37 14.32
12/25/2022 7:30:00 AM -0.02 31.964 0.265 7.72 14.45 14.31
12/25/2022 7:45:00 AM -0.02 31.964 0.264 7.74 14.77 14.31
12/25/2022 8:00:00 AM -0.02 31.964 0.263 7.74 14.82 14.3
12/25/2022 8:15:00 AM -0.02 31.964 0.264 7.73 15.09 14.3
12/25/2022 8:30:00 AM -0.02 31.964 0.263 7.74 14.53 14.3
12/25/2022 8:45:00 AM -0.02 31.964 0.263 7.74 15.08 14.3
12/25/2022 9:00:00 AM -0.02 31.964 0.262 7.74 15.18 14.3
12/25/2022 9:15:00 AM -0.02 31.964 0.261 7.74 15.6 14.31
12/25/2022 9:30:00 AM -0.02 31.964 0.261 7.73 15.79 14.23
12/25/2022 9:45:00 AM -0.02 31.964 0.261 7.75 15.9 14.31
12/25/2022 10:00:00 AM -0.02 31.964 0.26 7.74 15.11 14.33
12/25/2022 10:15:00 AM -0.02 31.964 0.259 7.75 15.05 14.34
12/25/2022 10:30:00 AM -0.02 31.964 0.259 7.76 15.43 14.35
12/25/2022 10:45:00 AM -0.02 31.964 0.258 7.76 15.88 14.35
12/25/2022 11:00:00 AM -0.02 31.964 0.257 7.75 15.85 14.36
12/25/2022 11:15:00 AM -0.02 31.964 0.257 7.76 15.92 14.37
12/25/2022 11:30:00 AM -0.02 31.964 0.256 7.75 15.2 14.38
12/25/2022 11:45:00 AM -0.02 31.964 0.255 7.77 15.63 14.38
12/25/2022 12:00:00 PM -0.02 31.964 0.256 7.76 15.71 14.39
12/25/2022 12:15:00 PM -0.02 31.964 0.255 7.76 15.66 14.4
12/25/2022 12:30:00 PM -0.02 31.964 0.255 7.75 16.81 14.4
12/25/2022 12:45:00 PM -0.02 31.964 0.254 7.77 17.09 14.41
12/25/2022 1:00:00 PM -0.02 31.964 0.253 7.78 17.03 14.42
12/25/2022 1:15:00 PM -0.02 31.964 0.253 7.78 16.56 14.42
12/25/2022 1:30:00 PM -0.02 31.964 0.253 7.77 16.97 14.43
12/25/2022 1:45:00 PM -0.02 31.964 0.252 7.78 16.6 14.43
12/25/2022 2:00:00 PM -0.02 31.964 0.253 7.78 17.03 14.44
12/25/2022 2:15:00 PM -0.02 31.964 0.252 7.78 17.43 14.44
12/25/2022 2:30:00 PM -0.02 31.964 0.252 7.78 17.28 14.45
12/25/2022 2:45:00 PM -0.02 31.964 0.251 7.79 18.1 14.46
12/25/2022 3:00:00 PM -0.02 31.964 0.251 7.77 17.59 14.46
12/25/2022 3:15:00 PM -0.02 31.964 0.251 7.79 17.68 14.46
12/25/2022 3:30:00 PM -0.01 31.982 0.25 7.79 18.13 14.46
12/25/2022 3:45:00 PM -0.01 31.982 0.25 7.79 18.32 14.46
12/25/2022 4:00:00 PM -0.02 31.964 0.251 7.78 18.34 14.46
12/25/2022 4:15:00 PM -0.02 31.964 0.25 7.79 18.14 14.46
12/25/2022 4:30:00 PM -0.02 31.964 0.251 7.78 19.38 14.46
12/25/2022 4:45:00 PM -0.02 31.964 0.25 7.79 18.75 14.46
12/25/2022 5:00:00 PM -0.02 31.964 0.25 7.78 18.69 14.45
12/25/2022 5:15:00 PM -0.02 31.964 0.25 7.78 18.35 14.44
12/25/2022 5:30:00 PM -0.02 31.964 0.25 7.79 19.68 14.43
12/25/2022 5:45:00 PM -0.02 31.964 0.25 7.78 20.29 14.43
12/25/2022 6:00:00 PM -0.02 31.964 0.251 7.77 19.2 14.42
12/25/2022 6:15:00 PM -0.02 31.964 0.25 7.77 18.85 14.42
12/25/2022 6:30:00 PM -0.02 31.964 0.25 7.77 19.41 14.42
12/25/2022 6:45:00 PM -0.02 31.964 0.25 7.77 19.73 14.41
12/25/2022 7:00:00 PM -0.02 31.964 0.251 7.77 19 14.41
12/25/2022 7:15:00 PM -0.02 31.964 0.25 7.76 19.34 14.4
12/25/2022 7:30:00 PM -0.02 31.964 0.251 7.76 19.42 14.39
12/25/2022 7:45:00 PM -0.02 31.964 0.25 7.76 20.36 14.39
12/25/2022 8:00:00 PM -0.02 31.964 0.25 7.75 20.98 14.39
12/25/2022 8:15:00 PM -0.02 31.964 0.25 7.77 20.8 14.39
12/25/2022 8:30:00 PM -0.02 31.964 0.25 7.76 20.4 14.38
12/25/2022 8:45:00 PM -0.02 31.964 0.25 7.75 20.71 14.38
12/25/2022 9:00:00 PM -0.02 31.964 0.25 7.76 20.5 14.38
12/25/2022 9:15:00 PM -0.02 31.964 0.25 7.75 21.21 14.38
12/25/2022 9:30:00 PM -0.02 31.964 0.25 7.75 20.89 14.37
12/25/2022 9:45:00 PM -0.02 31.964 0.251 7.74 20.58 14.37
12/25/2022 10:00:00 PM -0.02 31.964 0.25 7.75 20.74 14.37
12/25/2022 10:15:00 PM -0.02 31.964 0.251 7.73 22.29 14.37
12/25/2022 10:30:00 PM -0.02 31.964 0.251 7.75 21.89 14.36
12/25/2022 10:45:00 PM -0.02 31.964 0.251 7.75 22.22 14.37
12/25/2022 11:00:00 PM -0.02 31.964 0.251 7.75 21.45 14.36
12/25/2022 11:15:00 PM -0.02 31.964 0.251 7.74 22.45 14.36
12/25/2022 11:30:00 PM -0.02 31.964 0.252 7.74 22.3 14.36
12/25/2022 11:45:00 PM -0.02 31.964 0.252 7.75 22.43 14.36
12/26/2022 12:00:00 AM -0.02 31.964 0.252 7.74 22.75 14.37
12/26/2022 12:15:00 AM -0.02 31.964 0.252 7.72 23.29 14.37
12/26/2022 12:30:00 AM -0.02 31.964 0.252 7.74 23.43 14.36
12/26/2022 12:45:00 AM -0.02 31.964 0.252 7.74 22.65 14.36
12/26/2022 1:00:00 AM -0.02 31.964 0.253 7.73 22.67 14.36
12/26/2022 1:15:00 AM -0.02 31.964 0.253 7.74 24.58 14.36
12/26/2022 1:30:00 AM -0.02 31.964 0.253 7.73 22.38 14.36
12/26/2022 1:45:00 AM -0.02 31.964 0.253 7.74 22.21 14.37
12/26/2022 2:00:00 AM -0.02 31.964 0.254 7.73 22.57 14.36
12/26/2022 2:15:00 AM -0.02 31.964 0.254 7.74 23.75 14.36
12/26/2022 2:30:00 AM -0.02 31.964 0.254 7.73 22.25 14.36
12/26/2022 2:45:00 AM -0.02 31.964 0.254 7.74 23.14 14.36
12/26/2022 3:00:00 AM -0.02 31.964 0.255 7.73 22.88 14.36
12/26/2022 3:15:00 AM -0.02 31.964 0.255 7.73 22.13 14.36
12/26/2022 3:30:00 AM -0.02 31.964 0.256 7.72 23.35 14.36
12/26/2022 3:45:00 AM -0.02 31.964 0.255 7.74 22.73 14.36
12/26/2022 4:00:00 AM -0.02 31.964 0.256 7.73 21.94 14.36
12/26/2022 4:15:00 AM -0.02 31.964 0.256 7.73 19.98 14.36
12/26/2022 4:30:00 AM -0.02 31.964 0.257 7.73 21.51 14.36
12/26/2022 4:45:00 AM -0.02 31.964 0.257 7.73 21.49 14.36
12/26/2022 5:00:00 AM -0.02 31.964 0.257 7.73 21.74 14.36
12/26/2022 5:15:00 AM -0.02 31.964 0.258 7.73 22.41 14.35
12/26/2022 5:30:00 AM -0.02 31.964 0.259 7.73 21.99 14.35
12/26/2022 5:45:00 AM -0.02 31.964 0.26 7.73 22.8 14.35
12/26/2022 6:00:00 AM -0.02 31.964 0.261 7.72 21.3 14.35
12/26/2022 6:15:00 AM -0.02 31.964 0.261 7.74 22.01 14.34
12/26/2022 6:30:00 AM -0.02 31.964 0.262 7.74 21.59 14.34
12/26/2022 6:45:00 AM -0.02 31.964 0.264 7.73 21.98 14.34
12/26/2022 7:00:00 AM -0.02 31.964 0.264 7.73 21.96 14.34
12/26/2022 7:15:00 AM -0.02 31.964 0.265 7.74 22.17 14.24
12/26/2022 7:30:00 AM -0.02 31.964 0.266 7.74 20.7 14.32
12/26/2022 7:45:00 AM -0.02 31.964 0.267 7.74 22.33 14.33
12/26/2022 8:00:00 AM -0.02 31.964 0.268 7.73 21.98 14.33
12/26/2022 8:15:00 AM -0.02 31.964 0.268 7.75 22.17 14.33
12/26/2022 8:30:00 AM -0.02 31.964 0.27 7.74 22.07 14.33
12/26/2022 8:45:00 AM -0.02 31.964 0.27 7.74 21.27 14.33
12/26/2022 9:00:00 AM -0.02 31.964 0.271 7.73 20.96 14.34
12/26/2022 9:15:00 AM -0.02 31.964 0.271 7.75 21.5 14.34
12/26/2022 9:30:00 AM -0.02 31.964 0.272 7.75 21.23 14.35
12/26/2022 9:45:00 AM -0.02 31.964 0.272 7.75 21.67 14.36
12/26/2022 10:00:00 AM -0.02 31.964 0.273 7.76 21.75 14.37
12/26/2022 10:15:00 AM -0.02 31.964 0.273 7.75 21.07 14.38
12/26/2022 10:30:00 AM -0.02 31.964 0.273 7.76 20.69 14.39
12/26/2022 10:45:00 AM -0.01 31.982 0.274 7.77 20.74 14.4
12/26/2022 11:00:00 AM -0.01 31.982 0.274 7.78 20.59 14.41
12/26/2022 11:15:00 AM -0.01 31.982 0.274 7.78 20.68 14.42
12/26/2022 11:30:00 AM -0.01 31.982 0.274 7.78 21.42 14.43
12/26/2022 11:45:00 AM -0.01 31.982 0.274 7.78 21.22 14.44
12/26/2022 12:00:00 PM -0.01 31.982 0.275 7.77 22.13 14.45
12/26/2022 12:15:00 PM -0.01 31.982 0.274 7.79 22.9 14.46
12/26/2022 12:30:00 PM -0.01 31.982 0.274 7.8 21.72 14.47
12/26/2022 12:45:00 PM -0.01 31.982 0.275 7.79 19.21 14.48
12/26/2022 1:00:00 PM 0 32 0.274 7.81 21.35 14.48
12/26/2022 1:15:00 PM 0 32 0.274 7.8 23.34 14.49
12/26/2022 1:30:00 PM 0 32 0.273 7.81 19.11 14.5
12/26/2022 1:45:00 PM 0 32 0.273 7.8 19.82 14.51
12/26/2022 2:00:00 PM 0 32 0.273 7.82 18.96 14.52
12/26/2022 2:15:00 PM 0 32 0.273 7.82 18.9 14.53
12/26/2022 2:30:00 PM 0 32 0.273 7.82 19.06 14.53
12/26/2022 2:45:00 PM 0 32 0.272 7.82 19.07 14.54
12/26/2022 3:00:00 PM 0 32 0.272 7.83 19.19 14.54
12/26/2022 3:15:00 PM 0 32 0.273 7.83 18.45 14.55
12/26/2022 3:30:00 PM -0.01 31.982 0.272 7.83 19.36 14.55
12/26/2022 3:45:00 PM -0.01 31.982 0.273 7.83 18.94 14.55
12/26/2022 4:00:00 PM -0.01 31.982 0.272 7.83 19.35 14.55
12/26/2022 4:15:00 PM -0.01 31.982 0.273 7.83 18.78 14.54
12/26/2022 4:30:00 PM -0.01 31.982 0.273 7.83 18.67 14.54
12/26/2022 4:45:00 PM -0.01 31.982 0.273 7.84 18.39 14.53
12/26/2022 5:00:00 PM -0.01 31.982 0.273 7.83 17.11 14.53
12/26/2022 5:15:00 PM -0.01 31.982 0.273 7.83 17.29 14.52
12/26/2022 5:30:00 PM -0.01 31.982 0.273 7.83 17.67 14.51
12/26/2022 5:45:00 PM -0.01 31.982 0.274 7.81 17.76 14.5
12/26/2022 6:00:00 PM -0.01 31.982 0.273 7.83 17.49 14.49
12/26/2022 6:15:00 PM -0.01 31.982 0.274 7.83 17.1 14.48
12/26/2022 6:30:00 PM -0.01 31.982 0.273 7.82 17.39 14.48
12/26/2022 6:45:00 PM -0.01 31.982 0.274 7.83 17.34 14.47
12/26/2022 7:00:00 PM -0.01 31.982 0.273 7.82 17.56 14.46
12/26/2022 7:15:00 PM -0.01 31.982 0.274 7.82 17.02 14.45
12/26/2022 7:30:00 PM -0.01 31.982 0.274 7.81 16.31 14.45
12/26/2022 7:45:00 PM -0.01 31.982 0.274 7.82 15.87 14.44
12/26/2022 8:00:00 PM -0.01 31.982 0.274 7.81 16.16 14.44
12/26/2022 8:15:00 PM -0.01 31.982 0.274 7.81 15.89 14.43
12/26/2022 8:30:00 PM -0.01 31.982 0.274 7.81 16.56 14.43
12/26/2022 8:45:00 PM -0.01 31.982 0.275 7.82 16.31 14.43
12/26/2022 9:00:00 PM -0.01 31.982 0.274 7.81 15.64 14.43
12/26/2022 9:15:00 PM -0.01 31.982 0.275 7.8 16.03 14.42
12/26/2022 9:30:00 PM -0.01 31.982 0.274 7.81 15.92 14.42
12/26/2022 9:45:00 PM -0.01 31.982 0.275 7.81 16.42 14.42
12/26/2022 10:00:00 PM -0.01 31.982 0.274 7.81 16.21 14.41
12/26/2022 10:15:00 PM -0.01 31.982 0.275 7.8 16.13 14.41
12/26/2022 10:30:00 PM -0.01 31.982 0.274 7.8 15.54 14.41
12/26/2022 10:45:00 PM -0.01 31.982 0.274 7.8 15.41 14.4
12/26/2022 11:00:00 PM -0.01 31.982 0.274 7.8 15.89 14.4
12/26/2022 11:15:00 PM -0.01 31.982 0.274 7.79 15.52 14.39
12/26/2022 11:30:00 PM -0.01 31.982 0.274 7.8 15.4 14.39
12/26/2022 11:45:00 PM -0.01 31.982 0.275 7.8 15.04 14.39
12/27/2022 12:00:00 AM -0.01 31.982 0.274 7.8 15.41 14.38
12/27/2022 12:15:00 AM -0.01 31.982 0.274 7.79 15.38 14.38
12/27/2022 12:30:00 AM -0.01 31.982 0.275 7.79 15.16 14.37
12/27/2022 12:45:00 AM -0.01 31.982 0.275 7.78 14.71 14.37
12/27/2022 1:00:00 AM -0.01 31.982 0.274 7.8 14.93 14.37
12/27/2022 1:15:00 AM -0.01 31.982 0.274 7.79 14.77 14.37
12/27/2022 1:30:00 AM -0.01 31.982 0.274 7.79 15.36 14.37
12/27/2022 1:45:00 AM -0.01 31.982 0.275 7.8 15.36 14.37
12/27/2022 2:00:00 AM -0.01 31.982 0.274 7.79 14.52 14.37
12/27/2022 2:15:00 AM -0.01 31.982 0.274 7.79 14.48 14.37
12/27/2022 2:30:00 AM -0.01 31.982 0.274 7.79 14.57 14.37
12/27/2022 2:45:00 AM -0.01 31.982 0.274 7.79 14.91 14.37
12/27/2022 3:00:00 AM -0.01 31.982 0.273 7.8 14.87 14.37
12/27/2022 3:15:00 AM -0.01 31.982 0.274 7.79 14.22 14.38
12/27/2022 3:30:00 AM -0.01 31.982 0.273 7.78 14.29 14.37
12/27/2022 3:45:00 AM -0.01 31.982 0.274 7.8 14.1 14.37
12/27/2022 4:00:00 AM -0.01 31.982 0.273 7.79 14.14 14.37
12/27/2022 4:15:00 AM -0.01 31.982 0.274 7.79 14.57 14.37
12/27/2022 4:30:00 AM -0.01 31.982 0.273 7.8 13.76 14.37
12/27/2022 4:45:00 AM -0.01 31.982 0.274 7.8 14.09 14.37
12/27/2022 5:00:00 AM -0.01 31.982 0.273 7.79 13.87 14.28
12/27/2022 5:15:00 AM -0.01 31.982 0.274 7.8 13.82 14.26
12/27/2022 5:30:00 AM -0.01 31.982 0.274 7.8 13.69 14.35
12/27/2022 5:45:00 AM -0.01 31.982 0.274 7.79 13.85 14.36
12/27/2022 6:00:00 AM -0.01 31.982 0.274 7.79 13.5 14.36
12/27/2022 6:15:00 AM -0.01 31.982 0.274 7.79 13.82 14.36
12/27/2022 6:30:00 AM -0.01 31.982 0.275 7.8 13.78 14.36
12/27/2022 6:45:00 AM -0.01 31.982 0.276 7.79 13.72 14.35
12/27/2022 7:00:00 AM -0.01 31.982 0.276 7.79 13.52 14.35
12/27/2022 7:15:00 AM -0.01 31.982 0.275 7.79 13.54 14.34
12/27/2022 7:30:00 AM -0.01 31.982 0.276 7.79 13.96 14.34
12/27/2022 7:45:00 AM -0.01 31.982 0.276 7.79 13.83 14.34
12/27/2022 8:00:00 AM -0.01 31.982 0.276 7.8 14.08 14.34
12/27/2022 8:15:00 AM -0.01 31.982 0.276 7.78 13.09 14.34
12/27/2022 8:30:00 AM -0.01 31.982 0.276 7.8 13.17 14.33
12/27/2022 8:45:00 AM -0.01 31.982 0.276 7.79 13.26 14.33
12/27/2022 9:00:00 AM -0.01 31.982 0.276 7.8 13.23 14.33
12/27/2022 9:15:00 AM -0.01 31.982 0.276 7.79 13.62 14.33
12/27/2022 9:30:00 AM 0 32 0.275 7.79 12.83 14.34
12/27/2022 9:45:00 AM 0 32 0.275 7.8 13.37 14.34
12/27/2022 10:00:00 AM 0 32 0.275 7.8 13.8 14.35
12/27/2022 10:15:00 AM 0 32 0.275 7.78 13.23 14.36
12/27/2022 10:30:00 AM 0 32 0.274 7.8 13.19 14.36
12/27/2022 10:45:00 AM 0 32 0.273 7.8 13.09 14.38
12/27/2022 11:00:00 AM 0 32 0.274 7.8 13.65 14.39
12/27/2022 11:15:00 AM 0.01 32.018 0.273 7.81 13.91 14.4
12/27/2022 11:30:00 AM 0.01 32.018 0.272 7.8 13.87 14.4
12/27/2022 11:45:00 AM 0.01 32.018 0.272 7.81 13.14 14.42
12/27/2022 12:00:00 PM 0.01 32.018 0.272 7.81 13.2 14.43
12/27/2022 12:15:00 PM 0.01 32.018 0.27 7.81 13.98 14.43
12/27/2022 12:30:00 PM 0.01 32.018 0.269 7.81 13.38 14.44
12/27/2022 12:45:00 PM 0.01 32.018 0.269 7.81 13.75 14.45
12/27/2022 1:00:00 PM 0.01 32.018 0.269 7.81 13.59 14.46
12/27/2022 1:15:00 PM 0.01 32.018 0.268 7.82 14.03 14.47
12/27/2022 1:30:00 PM 0.02 32.036 0.267 7.82 13.76 14.47
12/27/2022 1:45:00 PM 0.02 32.036 0.266 7.82 13.73 14.49
12/27/2022 2:00:00 PM 0.02 32.036 0.265 7.83 13.51 14.49
12/27/2022 2:15:00 PM 0.02 32.036 0.265 7.83 14.21 14.5
12/27/2022 2:30:00 PM 0.02 32.036 0.265 7.82 14.77 14.51
12/27/2022 2:45:00 PM 0.02 32.036 0.264 7.83 14.49 14.51
12/27/2022 3:00:00 PM 0.01 32.018 0.264 7.83 15.35 14.52
12/27/2022 3:15:00 PM 0.01 32.018 0.263 7.83 14.75 14.52
12/27/2022 3:30:00 PM 0.01 32.018 0.263 7.82 14.31 14.52
12/27/2022 3:45:00 PM 0.01 32.018 0.262 7.84 15.56 14.53
12/27/2022 4:00:00 PM 0.01 32.018 0.262 7.84 15.74 14.53
12/27/2022 4:15:00 PM 0 32 0.261 7.83 15.83 14.52
12/27/2022 4:30:00 PM 0 32 0.262 7.83 15.39 14.52
12/27/2022 4:45:00 PM 0 32 0.261 7.83 15.26 14.51
12/27/2022 5:00:00 PM -0.01 31.982 0.261 7.83 15.7 14.5
12/27/2022 5:15:00 PM -0.01 31.982 0.26 7.82 15.42 14.49
12/27/2022 5:30:00 PM -0.01 31.982 0.26 7.82 15.43 14.48
12/27/2022 5:45:00 PM -0.01 31.982 0.26 7.82 15 14.48
12/27/2022 6:00:00 PM -0.01 31.982 0.26 7.82 15.2 14.46
12/27/2022 6:15:00 PM -0.01 31.982 0.259 7.81 14.92 14.46
12/27/2022 6:30:00 PM -0.01 31.982 0.259 7.81 15.01 14.45
12/27/2022 6:45:00 PM -0.01 31.982 0.259 7.81 15.16 14.44
12/27/2022 7:00:00 PM -0.01 31.982 0.259 7.8 15.24 14.43
12/27/2022 7:15:00 PM -0.01 31.982 0.259 7.8 15.07 14.43
12/27/2022 7:30:00 PM -0.02 31.964 0.259 7.81 14.17 14.43
12/27/2022 7:45:00 PM -0.01 31.982 0.259 7.8 14.28 14.42
12/27/2022 8:00:00 PM -0.01 31.982 0.259 7.8 14.63 14.42
12/27/2022 8:15:00 PM -0.01 31.982 0.258 7.8 14.79 14.42
12/27/2022 8:30:00 PM -0.01 31.982 0.259 7.8 15.76 14.42
12/27/2022 8:45:00 PM -0.01 31.982 0.258 7.8 14.39 14.42
12/27/2022 9:00:00 PM -0.01 31.982 0.259 7.79 14.12 14.42
12/27/2022 9:15:00 PM -0.01 31.982 0.258 7.79 14.47 14.42
12/27/2022 9:30:00 PM -0.01 31.982 0.258 7.79 14.04 14.42
12/27/2022 9:45:00 PM -0.01 31.982 0.259 7.79 13.89 14.41
12/27/2022 10:00:00 PM -0.01 31.982 0.259 7.79 13.47 14.41
12/27/2022 10:15:00 PM -0.01 31.982 0.259 7.79 13.83 14.41
12/27/2022 10:30:00 PM -0.01 31.982 0.259 7.78 13.56 14.41
12/27/2022 10:45:00 PM 0 32 0.259 7.79 13.85 14.41
12/27/2022 11:00:00 PM -0.01 31.982 0.259 7.8 13.61 14.4
12/27/2022 11:15:00 PM -0.01 31.982 0.259 7.79 12.95 14.4
12/27/2022 11:30:00 PM 0 32 0.259 7.79 13.14 14.4
12/27/2022 11:45:00 PM 0 32 0.26 7.79 13.03 14.39
12/28/2022 12:00:00 AM 0 32 0.259 7.79 12.76 14.39
12/28/2022 12:15:00 AM 0 32 0.26 7.79 13.53 14.4
12/28/2022 12:30:00 AM 0 32 0.259 7.79 13.22 14.39
12/28/2022 12:45:00 AM 0 32 0.26 7.78 13.46 14.39
12/28/2022 1:00:00 AM 0 32 0.259 7.79 13.27 14.39
12/28/2022 1:15:00 AM 0 32 0.26 7.79 12.49 14.39
12/28/2022 1:30:00 AM 0 32 0.259 7.79 12.86 14.38
12/28/2022 1:45:00 AM 0 32 0.26 7.78 13.14 14.37
12/28/2022 2:00:00 AM 0 32 0.26 7.79 12.49 14.37
12/28/2022 2:15:00 AM -0.01 31.982 0.259 7.79 13.01 14.36
12/28/2022 2:30:00 AM -0.01 31.982 0.26 7.78 13.11 14.36
12/28/2022 2:45:00 AM -0.01 31.982 0.26 7.78 12.7 14.36
12/28/2022 3:00:00 AM -0.01 31.982 0.26 7.78 12.84 14.37
12/28/2022 3:15:00 AM -0.01 31.982 0.26 7.78 13.19 14.36
12/28/2022 3:30:00 AM -0.01 31.982 0.26 7.78 12.95 14.35
12/28/2022 3:45:00 AM -0.01 31.982 0.26 7.78 12.66 14.35
12/28/2022 4:00:00 AM -0.01 31.982 0.261 7.78 13 14.34
12/28/2022 4:15:00 AM -0.01 31.982 0.26 7.78 12.79 14.34
12/28/2022 4:30:00 AM -0.01 31.982 0.261 7.78 12.76 14.34
12/28/2022 4:45:00 AM -0.01 31.982 0.261 7.78 12.68 14.33
12/28/2022 5:00:00 AM -0.01 31.982 0.261 7.77 12.15 14.32
12/28/2022 5:15:00 AM -0.01 31.982 0.262 7.78 11.91 14.33
12/28/2022 5:30:00 AM -0.01 31.982 0.261 7.77 12.54 14.32
12/28/2022 5:45:00 AM -0.01 31.982 0.262 7.78 12.4 14.32
12/28/2022 6:00:00 AM 0 32 0.262 7.77 12.26 14.31
12/28/2022 6:15:00 AM 0 32 0.262 7.77 12.02 14.31
12/28/2022 6:30:00 AM 0 32 0.262 7.77 11.96 14.3
12/28/2022 6:45:00 AM 0 32 0.263 7.77 12.38 14.29
12/28/2022 7:00:00 AM -0.01 31.982 0.262 7.77 11.88 14.29
12/28/2022 7:15:00 AM -0.01 31.982 0.263 7.77 11.84 14.29
12/28/2022 7:30:00 AM -0.01 31.982 0.262 7.77 11.49 14.28
12/28/2022 7:45:00 AM -0.01 31.982 0.262 7.77 11.42 14.27
12/28/2022 8:00:00 AM -0.01 31.982 0.263 7.77 11.64 14.27
12/28/2022 8:15:00 AM 0 32 0.263 7.76 11.46 14.27
12/28/2022 8:30:00 AM 0 32 0.263 7.76 12.21 14.28
12/28/2022 8:45:00 AM 0.01 32.018 0.263 7.77 12.28 14.28
12/28/2022 9:00:00 AM 0.01 32.018 0.263 7.77 12.04 14.29
12/28/2022 9:15:00 AM 0.02 32.036 0.264 7.77 12.07 14.3
12/28/2022 9:30:00 AM 0.03 32.054 0.263 7.77 11.89 14.32
12/28/2022 9:45:00 AM 0.04 32.072 0.263 7.79 11.48 14.34
12/28/2022 10:00:00 AM 0.05 32.09 0.263 7.79 11.95 14.35
12/28/2022 10:15:00 AM 0.06 32.108 0.263 7.78 11.72 14.37
12/28/2022 10:30:00 AM 0.07 32.126 0.262 7.8 11.91 14.38
12/28/2022 10:45:00 AM 0.08 32.144 0.262 7.8 11.25 14.39
12/28/2022 11:00:00 AM 0.09 32.162 0.263 7.81 12.01 14.4
12/28/2022 11:15:00 AM 0.09 32.162 0.262 7.81 12.46 14.41
12/28/2022 11:30:00 AM 0.1 32.18 0.262 7.82 12.83 14.44
12/28/2022 11:45:00 AM 0.1 32.18 0.263 7.82 12.55 14.45
12/28/2022 12:00:00 PM 0.11 32.198 0.262 7.83 13.16 14.46
12/28/2022 12:15:00 PM 0.11 32.198 0.262 7.84 13.87 14.38
12/28/2022 12:30:00 PM 0.12 32.216 0.262 7.84 13.85 14.37
12/28/2022 12:45:00 PM 0.13 32.234 0.262 7.84 14.53 14.47
12/28/2022 1:00:00 PM 0.15 32.27 0.262 7.84 14.87 14.48
12/28/2022 1:15:00 PM 0.16 32.288 0.262 7.85 14.35 14.49
12/28/2022 1:30:00 PM 0.18 32.324 0.262 7.85 14.47 14.49
12/28/2022 1:45:00 PM 0.18 32.324 0.262 7.85 14.68 14.48
12/28/2022 2:00:00 PM 0.18 32.324 0.262 7.85 15.29 14.48
12/28/2022 2:15:00 PM 0.18 32.324 0.262 7.85 15.34 14.47
12/28/2022 2:30:00 PM 0.18 32.324 0.262 7.85 15.92 14.47
12/28/2022 2:45:00 PM 0.18 32.324 0.262 7.85 16.23 14.46
12/28/2022 3:00:00 PM 0.17 32.306 0.262 7.86 16.61 14.46
12/28/2022 3:15:00 PM 0.16 32.288 0.262 7.86 15.46 14.45
12/28/2022 3:30:00 PM 0.15 32.27 0.262 7.85 16.18 14.45
12/28/2022 3:45:00 PM 0.14 32.252 0.262 7.86 16.86 14.44
12/28/2022 4:00:00 PM 0.13 32.234 0.262 7.84 16.52 14.43
12/28/2022 4:15:00 PM 0.12 32.216 0.262 7.86 16.77 14.42
12/28/2022 4:30:00 PM 0.11 32.198 0.262 7.85 16.6 14.41
12/28/2022 4:45:00 PM 0.1 32.18 0.262 7.85 17.42 14.39
12/28/2022 5:00:00 PM 0.1 32.18 0.263 7.84 18.1 14.38
12/28/2022 5:15:00 PM 0.1 32.18 0.262 7.84 17.79 14.37
12/28/2022 5:30:00 PM 0.11 32.198 0.263 7.84 17.14 14.36
12/28/2022 5:45:00 PM 0.12 32.216 0.262 7.84 17.78 14.35
12/28/2022 6:00:00 PM 0.14 32.252 0.262 7.84 17.34 14.35
12/28/2022 6:15:00 PM 0.15 32.27 0.263 7.83 16.7 14.35
12/28/2022 6:30:00 PM 0.16 32.288 0.262 7.85 16.24 14.34
12/28/2022 6:45:00 PM 0.17 32.306 0.263 7.84 15.99 14.35
12/28/2022 7:00:00 PM 0.17 32.306 0.262 7.84 15.33 14.34
12/28/2022 7:15:00 PM 0.18 32.324 0.263 7.84 15.77 14.35
12/28/2022 7:30:00 PM 0.18 32.324 0.263 7.85 15.35 14.35
12/28/2022 7:45:00 PM 0.18 32.324 0.263 7.85 15.07 14.35
12/28/2022 8:00:00 PM 0.18 32.324 0.263 7.84 14.79 14.35
12/28/2022 8:15:00 PM 0.18 32.324 0.263 7.85 14.29 14.34
12/28/2022 8:30:00 PM 0.18 32.324 0.263 7.85 13.9 14.35
12/28/2022 8:45:00 PM 0.18 32.324 0.263 7.85 14.19 14.35
12/28/2022 9:00:00 PM 0.18 32.324 0.263 7.84 14.33 14.34
12/28/2022 9:15:00 PM 0.18 32.324 0.264 7.84 13.57 14.34
12/28/2022 9:30:00 PM 0.18 32.324 0.263 7.85 13.8 14.34
12/28/2022 9:45:00 PM 0.17 32.306 0.263 7.83 13.72 14.33
12/28/2022 10:00:00 PM 0.17 32.306 0.263 7.85 13.37 14.33
12/28/2022 10:15:00 PM 0.17 32.306 0.263 7.85 13.85 14.32
12/28/2022 10:30:00 PM 0.17 32.306 0.263 7.84 13.14 14.32
12/28/2022 10:45:00 PM 0.16 32.288 0.264 7.84 13.26 14.32
12/28/2022 11:00:00 PM 0.16 32.288 0.263 7.84 13.27 14.32
12/28/2022 11:15:00 PM 0.15 32.27 0.264 7.84 12.59 14.31
12/28/2022 11:30:00 PM 0.15 32.27 0.263 7.84 12.95 14.3
12/28/2022 11:45:00 PM 0.15 32.27 0.263 7.84 12.79 14.3
12/29/2022 12:00:00 AM 0.15 32.27 0.263 7.83 12.59 14.29
12/29/2022 12:15:00 AM 0.15 32.27 0.263 7.83 12.78 14.29
12/29/2022 12:30:00 AM 0.15 32.27 0.263 7.83 12.6 14.28
12/29/2022 12:45:00 AM 0.14 32.252 0.264 7.82 12.44 14.27
12/29/2022 1:00:00 AM 0.14 32.252 0.263 7.83 12.26 14.26
12/29/2022 1:15:00 AM 0.14 32.252 0.264 7.83 12.13 14.26
12/29/2022 1:30:00 AM 0.13 32.234 0.264 7.83 11.89 14.25
12/29/2022 1:45:00 AM 0.13 32.234 0.265 7.82 11.83 14.24
12/29/2022 2:00:00 AM 0.13 32.234 0.265 7.82 11.65 14.24
12/29/2022 2:15:00 AM 0.12 32.216 0.266 7.82 11.74 14.23
12/29/2022 2:30:00 AM 0.11 32.198 0.266 7.82 11.63 14.22
12/29/2022 2:45:00 AM 0.11 32.198 0.267 7.82 11.68 14.22
12/29/2022 3:00:00 AM 0.1 32.18 0.267 7.8 11.96 14.22
12/29/2022 3:15:00 AM 0.1 32.18 0.267 7.82 11.31 14.21
12/29/2022 3:30:00 AM 0.09 32.162 0.267 7.82 11.14 14.21
12/29/2022 3:45:00 AM 0.08 32.144 0.268 7.81 11.35 14.21
12/29/2022 4:00:00 AM 0.08 32.144 0.268 7.81 10.83 14.2
12/29/2022 4:15:00 AM 0.07 32.126 0.269 7.8 10.96 14.19
12/29/2022 4:30:00 AM 0.06 32.108 0.268 7.81 11.09 14.19
12/29/2022 4:45:00 AM 0.05 32.09 0.269 7.81 10.74 14.18
12/29/2022 5:00:00 AM 0.04 32.072 0.269 7.8 10.47 14.18
12/29/2022 5:15:00 AM 0.03 32.054 0.269 7.81 11.13 14.18
12/29/2022 5:30:00 AM 0.03 32.054 0.27 7.8 10.71 14.19
12/29/2022 5:45:00 AM 0.02 32.036 0.271 7.8 10.85 14.19
12/29/2022 6:00:00 AM 0.01 32.018 0.271 7.8 10.64 14.18
12/29/2022 6:15:00 AM 0 32 0.272 7.8 10.62 14.18
12/29/2022 6:30:00 AM -0.01 31.982 0.272 7.8 10.45 14.18
12/29/2022 6:45:00 AM -0.01 31.982 0.272 7.79 10.63 14.18
12/29/2022 7:00:00 AM -0.02 31.964 0.273 7.8 10.5 14.18
12/29/2022 7:15:00 AM -0.02 31.964 0.274 7.79 10.41 14.18
12/29/2022 7:30:00 AM -0.02 31.964 0.274 7.79 10.58 14.17
12/29/2022 7:45:00 AM -0.02 31.964 0.275 7.79 10.54 14.17
12/29/2022 8:00:00 AM -0.02 31.964 0.276 7.79 10.61 14.17
12/29/2022 8:15:00 AM -0.01 31.982 0.277 7.79 10.01 14.18
12/29/2022 8:30:00 AM -0.01 31.982 0.277 7.79 9.62 14.18
12/29/2022 8:45:00 AM -0.01 31.982 0.277 7.79 9.99 14.18
12/29/2022 9:00:00 AM 0 32 0.278 7.79 9.83 14.2
12/29/2022 9:15:00 AM 0 32 0.278 7.8 10.05 14.21
12/29/2022 9:30:00 AM 0.01 32.018 0.278 7.8 9.92 14.23
12/29/2022 9:45:00 AM 0.01 32.018 0.279 7.8 9.41 14.24
12/29/2022 10:00:00 AM 0.02 32.036 0.279 7.81 9.69 14.26
12/29/2022 10:15:00 AM 0.03 32.054 0.28 7.8 9.79 14.28
12/29/2022 10:30:00 AM 0.04 32.072 0.279 7.82 9.94 14.3
12/29/2022 10:45:00 AM 0.06 32.108 0.279 7.83 9.48 14.33
12/29/2022 11:00:00 AM 0.08 32.144 0.28 7.83 9.19 14.35
12/29/2022 11:15:00 AM 0.11 32.198 0.28 7.83 9.33 14.36
12/29/2022 11:30:00 AM 0.14 32.252 0.28 7.84 9.45 14.38
12/29/2022 11:45:00 AM 0.17 32.306 0.28 7.84 9.23 14.39
12/29/2022 12:00:00 PM 0.19 32.342 0.281 7.85 9.09 14.41
12/29/2022 12:15:00 PM 0.22 32.396 0.281 7.85 9.1 14.41
12/29/2022 12:30:00 PM 0.26 32.468 0.282 7.85 9.46 14.42
12/29/2022 12:45:00 PM 0.29 32.522 0.281 7.87 9.19 14.44
12/29/2022 1:00:00 PM 0.32 32.576 0.281 7.87 9.36 14.44
12/29/2022 1:15:00 PM 0.34 32.612 0.281 7.87 9.38 14.46
12/29/2022 1:30:00 PM 0.38 32.684 0.281 7.87 9.25 14.37
12/29/2022 1:45:00 PM 0.41 32.738 0.281 7.88 8.92 14.46
12/29/2022 2:00:00 PM 0.44 32.792 0.282 7.88 9.05 14.49
12/29/2022 2:15:00 PM 0.47 32.846 0.282 7.89 9.12 14.5
12/29/2022 2:30:00 PM 0.49 32.882 0.282 7.89 9.2 14.51
12/29/2022 2:45:00 PM 0.52 32.936 0.282 7.89 9.2 14.52
12/29/2022 3:00:00 PM 0.54 32.972 0.282 7.91 9.43 14.54
12/29/2022 3:15:00 PM 0.56 33.008 0.283 7.91 9.16 14.54
12/29/2022 3:30:00 PM 0.57 33.026 0.282 7.91 9.59 14.54
12/29/2022 3:45:00 PM 0.58 33.044 0.282 7.92 9.82 14.54
12/29/2022 4:00:00 PM 0.59 33.062 0.282 7.92 9.09 14.54
12/29/2022 4:15:00 PM 0.59 33.062 0.282 7.92 9.08 14.54
12/29/2022 4:30:00 PM 0.59 33.062 0.282 7.92 9.24 14.53
12/29/2022 4:45:00 PM 0.6 33.08 0.282 7.92 9.23 14.52
12/29/2022 5:00:00 PM 0.59 33.062 0.282 7.92 8.94 14.51
12/29/2022 5:15:00 PM 0.59 33.062 0.282 7.92 8.95 14.5
12/29/2022 5:30:00 PM 0.59 33.062 0.282 7.92 9.35 14.48
12/29/2022 5:45:00 PM 0.58 33.044 0.282 7.91 9.17 14.46
12/29/2022 6:00:00 PM 0.58 33.044 0.282 7.92 9.12 14.45
12/29/2022 6:15:00 PM 0.58 33.044 0.282 7.91 9.45 14.43
12/29/2022 6:30:00 PM 0.58 33.044 0.282 7.91 8.57 14.42
12/29/2022 6:45:00 PM 0.58 33.044 0.282 7.91 8.54 14.38
12/29/2022 7:00:00 PM 0.58 33.044 0.281 7.91 9.25 14.37
12/29/2022 7:15:00 PM 0.59 33.062 0.281 7.9 8.89 14.34
12/29/2022 7:30:00 PM 0.6 33.08 0.281 7.9 9.11 14.33
12/29/2022 7:45:00 PM 0.61 33.098 0.281 7.89 8.84 14.31
12/29/2022 8:00:00 PM 0.63 33.134 0.28 7.9 9.04 14.32
12/29/2022 8:15:00 PM 0.64 33.152 0.281 7.9 9.26 14.32
12/29/2022 8:30:00 PM 0.66 33.188 0.28 7.9 8.98 14.29
12/29/2022 8:45:00 PM 0.68 33.224 0.281 7.89 8.95 14.28
12/29/2022 9:00:00 PM 0.71 33.278 0.28 7.89 9.53 14.27
12/29/2022 9:15:00 PM 0.73 33.314 0.28 7.89 8.94 14.26
12/29/2022 9:30:00 PM 0.75 33.35 0.279 7.89 9.03 14.25
12/29/2022 9:45:00 PM 0.77 33.386 0.279 7.89 9.02 14.23
12/29/2022 10:00:00 PM 0.79 33.422 0.279 7.89 9.47 14.22
12/29/2022 10:15:00 PM 0.81 33.458 0.279 7.88 9.05 14.21
12/29/2022 10:30:00 PM 0.82 33.476 0.279 7.89 8.81 14.2
12/29/2022 10:45:00 PM 0.83 33.494 0.278 7.89 8.78 14.19
12/29/2022 11:00:00 PM 0.84 33.512 0.278 7.89 9.16 14.18
12/29/2022 11:15:00 PM 0.85 33.53 0.278 7.88 9.15 14.16
12/29/2022 11:30:00 PM 0.86 33.548 0.278 7.88 8.8 14.16
12/29/2022 11:45:00 PM 0.86 33.548 0.278 7.87 9.44 14.14
12/30/2022 12:00:00 AM 0.87 33.566 0.278 7.88 8.93 14.14
12/30/2022 12:15:00 AM 0.89 33.602 0.278 7.88 8.66 14.12
12/30/2022 12:30:00 AM 0.9 33.62 0.277 7.88 8.91 14.11
12/30/2022 12:45:00 AM 0.9 33.62 0.278 7.86 9 14.1
12/30/2022 1:00:00 AM 0.91 33.638 0.278 7.87 9.11 14.09
12/30/2022 1:15:00 AM 0.92 33.656 0.278 7.87 9.07 14.08
12/30/2022 1:30:00 AM 0.92 33.656 0.278 7.87 9.17 14.06
12/30/2022 1:45:00 AM 0.92 33.656 0.278 7.86 8.64 14.05
12/30/2022 2:00:00 AM 0.92 33.656 0.278 7.86 9.01 14.04
12/30/2022 2:15:00 AM 0.93 33.674 0.279 7.84 8.66 14.04
12/30/2022 2:30:00 AM 0.93 33.674 0.279 7.86 8.66 14.02
12/30/2022 2:45:00 AM 0.92 33.656 0.28 7.86 8.72 14.01
12/30/2022 3:00:00 AM 0.92 33.656 0.28 7.85 9 14
12/30/2022 3:15:00 AM 0.92 33.656 0.28 7.84 9.1 13.99
12/30/2022 3:30:00 AM 0.92 33.656 0.28 7.85 8.75 13.98
12/30/2022 3:45:00 AM 0.92 33.656 0.28 7.85 9.03 13.98
12/30/2022 4:00:00 AM 0.91 33.638 0.28 7.84 8.52 13.96
12/30/2022 4:15:00 AM 0.91 33.638 0.281 7.85 8.74 13.97
12/30/2022 4:30:00 AM 0.91 33.638 0.281 7.83 8.76 13.96
12/30/2022 4:45:00 AM 0.91 33.638 0.281 7.84 8.95 13.95
12/30/2022 5:00:00 AM 0.91 33.638 0.281 7.84 8.75 13.94
12/30/2022 5:15:00 AM 0.91 33.638 0.281 7.84 9.01 13.93
12/30/2022 5:30:00 AM 0.91 33.638 0.281 7.83 8.53 13.93
12/30/2022 5:45:00 AM 0.92 33.656 0.28 7.83 8.54 13.92
12/30/2022 6:00:00 AM 0.92 33.656 0.281 7.82 8.82 13.91
12/30/2022 6:15:00 AM 0.93 33.674 0.281 7.83 8.76 13.9
12/30/2022 6:30:00 AM 0.93 33.674 0.281 7.83 8.6 13.9
12/30/2022 6:45:00 AM 0.94 33.692 0.282 7.82 8.84 13.89
12/30/2022 7:00:00 AM 0.94 33.692 0.281 7.83 8.86 13.88
12/30/2022 7:15:00 AM 0.94 33.692 0.281 7.82 8.79 13.88
12/30/2022 7:30:00 AM 0.94 33.692 0.282 7.83 8.64 13.87
12/30/2022 7:45:00 AM 0.95 33.71 0.282 7.81 8.97 13.86
12/30/2022 8:00:00 AM 0.95 33.71 0.282 7.83 8.82 13.86
12/30/2022 8:15:00 AM 0.96 33.728 0.283 7.82 9.05 13.87
12/30/2022 8:30:00 AM 0.98 33.764 0.283 7.83 8.57 13.87
12/30/2022 8:45:00 AM 0.98 33.764 0.283 7.83 8.8 13.87
12/30/2022 9:00:00 AM 1 33.8 0.284 7.82 8.68 13.89
12/30/2022 9:15:00 AM 1.01 33.818 0.284 7.84 11.78 13.91
12/30/2022 9:30:00 AM 1.03 33.854 0.285 7.84 9.1 13.93
12/30/2022 9:45:00 AM 1.06 33.908 0.285 7.83 8.43 13.96
12/30/2022 10:00:00 AM 1.09 33.962 0.285 7.85 8.34 13.99
12/30/2022 10:15:00 AM 1.12 34.016 0.285 7.85 8.32 14.01
12/30/2022 10:30:00 AM 1.16 34.088 0.286 7.86 8.7 14.03
12/30/2022 10:45:00 AM 1.21 34.178 0.286 7.87 8.23 14.05
12/30/2022 11:00:00 AM 1.25 34.25 0.286 7.86 8.32 14.07
12/30/2022 11:15:00 AM 1.29 34.322 0.286 7.88 8.27 14.11
12/30/2022 11:30:00 AM 1.32 34.376 0.286 7.89 8.09 14.12
12/30/2022 11:45:00 AM 1.37 34.466 0.286 7.89 8.39 14.15
12/30/2022 12:00:00 PM 1.39 34.502 0.286 7.89 8.17 14.17
12/30/2022 12:15:00 PM 1.41 34.538 0.286 7.9 8.36 14.19
12/30/2022 12:30:00 PM 1.45 34.61 0.286 7.91 8.78 14.19
12/30/2022 12:45:00 PM 1.49 34.682 0.287 7.91 8.26 14.21
12/30/2022 1:00:00 PM 1.54 34.772 0.287 7.9 8.25 14.22
12/30/2022 1:15:00 PM 1.6 34.88 0.287 7.92 8.21 14.24
12/30/2022 1:30:00 PM 1.66 34.988 0.287 7.93 8.02 14.25
12/30/2022 1:45:00 PM 1.7 35.06 0.287 7.94 7.99 14.27
12/30/2022 2:00:00 PM 1.73 35.114 0.288 7.93 8.33 14.28
12/30/2022 2:15:00 PM 1.75 35.15 0.288 7.95 9.01 14.28
12/30/2022 2:30:00 PM 1.75 35.15 0.288 7.95 8.77 14.27
12/30/2022 2:45:00 PM 1.74 35.132 0.288 7.95 8.88 14.28
12/30/2022 3:00:00 PM 1.74 35.132 0.288 7.95 9.43 14.29
12/30/2022 3:15:00 PM 1.74 35.132 0.288 7.96 9.83 14.29
12/30/2022 3:30:00 PM 1.74 35.132 0.288 7.95 9.95 14.28
12/30/2022 3:45:00 PM 1.74 35.132 0.287 7.96 9.96 14.29
12/30/2022 4:00:00 PM 1.74 35.132 0.288 7.94 10.8 14.29
12/30/2022 4:15:00 PM 1.75 35.15 0.287 7.96 11.1 14.28
12/30/2022 4:30:00 PM 1.75 35.15 0.287 7.95 11.29 14.28
12/30/2022 4:45:00 PM 1.74 35.132 0.286 7.95 10.91 14.26
12/30/2022 5:00:00 PM 1.73 35.114 0.286 7.94 11.35 14.24
12/30/2022 5:15:00 PM 1.72 35.096 0.285 7.94 11.19 14.22
12/30/2022 5:30:00 PM 1.7 35.06 0.285 7.94 11.78 14.2
12/30/2022 5:45:00 PM 1.68 35.024 0.285 7.92 11.92 14.18
12/30/2022 6:00:00 PM 1.66 34.988 0.285 7.93 11.51 14.16
12/30/2022 6:15:00 PM 1.65 34.97 0.285 7.92 11.3 14.14
12/30/2022 6:30:00 PM 1.65 34.97 0.284 7.92 11.19 14.12
12/30/2022 6:45:00 PM 1.63 34.934 0.284 7.91 10.52 14.1
12/30/2022 7:00:00 PM 1.63 34.934 0.283 7.91 10.71 14.09
12/30/2022 7:15:00 PM 1.63 34.934 0.282 7.91 10.55 14.07
12/30/2022 7:30:00 PM 1.62 34.916 0.282 7.91 10.53 14.06
12/30/2022 7:45:00 PM 1.61 34.898 0.281 7.9 10.34 14.05
12/30/2022 8:00:00 PM 1.6 34.88 0.282 7.9 10.9 14.04
12/30/2022 8:15:00 PM 1.59 34.862 0.281 7.89 10.8 14.02
12/30/2022 8:30:00 PM 1.59 34.862 0.28 7.9 10.63 14.01
12/30/2022 8:45:00 PM 1.59 34.862 0.28 7.89 10.81 14.01
12/30/2022 9:00:00 PM 1.59 34.862 0.279 7.9 11.1 14.01
12/30/2022 9:15:00 PM 1.58 34.844 0.279 7.89 11.22 14
12/30/2022 9:30:00 PM 1.58 34.844 0.278 7.9 28.49 13.98
12/30/2022 9:45:00 PM 1.56 34.808 0.278 7.9 14.22 14
12/30/2022 10:00:00 PM 1.56 34.808 0.278 7.9 12.19 13.99
12/30/2022 10:15:00 PM 1.56 34.808 0.277 7.9 12.45 13.98
12/30/2022 10:30:00 PM 1.54 34.772 0.277 7.9 12.03 13.97
12/30/2022 10:45:00 PM 1.53 34.754 0.276 7.89 12.69 13.96
12/30/2022 11:00:00 PM 1.51 34.718 0.276 7.89 13.77 13.96
12/30/2022 11:15:00 PM 1.48 34.664 0.275 7.89 14.05 13.95
12/30/2022 11:30:00 PM 1.46 34.628 0.275 7.89 14.17 13.96
12/30/2022 11:45:00 PM 1.45 34.61 0.275 7.89 14.65 13.95
12/31/2022 12:00:00 AM 1.45 34.61 0.274 7.88 16.25 13.94
12/31/2022 12:15:00 AM 1.43 34.574 0.273 7.89 15.99 13.93
12/31/2022 12:30:00 AM 1.43 34.574 0.273 7.87 18.42 13.93
12/31/2022 12:45:00 AM 1.42 34.556 0.272 7.88 15.82 13.93
12/31/2022 1:00:00 AM 1.41 34.538 0.272 7.87 18.15 13.92
12/31/2022 1:15:00 AM 1.4 34.52 0.271 7.86 17.02 13.9
12/31/2022 1:30:00 AM 1.39 34.502 0.271 7.85 17.68 13.88
12/31/2022 1:45:00 AM 1.37 34.466 0.269 7.85 18.11 13.89
12/31/2022 2:00:00 AM 1.34 34.412 0.268 7.85 17.97 13.88
12/31/2022 2:15:00 AM 1.32 34.376 0.266 7.85 18.04 13.89
12/31/2022 2:30:00 AM 1.31 34.358 0.265 7.84 18.44 13.89
12/31/2022 2:45:00 AM 1.3 34.34 0.263 7.84 18.89 13.89
12/31/2022 3:00:00 AM 1.29 34.322 0.261 7.84 19.2 13.88
12/31/2022 3:15:00 AM 1.27 34.286 0.257 7.84 21.36 13.79
12/31/2022 3:30:00 AM 1.25 34.25 0.257 7.81 22.2 13.87
12/31/2022 3:45:00 AM 1.23 34.214 0.255 7.82 21.28 13.87
12/31/2022 4:00:00 AM 1.2 34.16 0.253 7.81 22.36 13.87
12/31/2022 4:15:00 AM 1.18 34.124 0.251 7.81 21.88 13.87
12/31/2022 4:30:00 AM 1.15 34.07 0.25 7.79 23.25 13.88
12/31/2022 4:45:00 AM 1.13 34.034 0.248 7.8 24.11 13.89
12/31/2022 5:00:00 AM 1.1 33.98 0.246 7.8 26.13 13.9
12/31/2022 5:15:00 AM 1.07 33.926 0.244 7.79 26.52 13.9
12/31/2022 5:30:00 AM 1.04 33.872 0.243 7.78 26.29 13.91
12/31/2022 5:45:00 AM 1.01 33.818 0.241 7.78 26.01 13.92
12/31/2022 6:00:00 AM 0.99 33.782 0.24 7.77 27.05 13.93
12/31/2022 6:15:00 AM 0.97 33.746 0.238 7.77 28.92 13.93
12/31/2022 6:30:00 AM 0.95 33.71 0.236 7.76 29.16 13.94
12/31/2022 6:45:00 AM 0.93 33.674 0.233 7.76 30.44 13.94
12/31/2022 7:00:00 AM 0.92 33.656 0.232 7.75 31.92 13.95
12/31/2022 7:15:00 AM 0.91 33.638 0.23 7.75 31.24 13.96
12/31/2022 7:30:00 AM 0.9 33.62 0.229 7.74 31.88 13.96
12/31/2022 7:45:00 AM 0.89 33.602 0.227 7.74 32.16 13.96
12/31/2022 8:00:00 AM 0.88 33.584 0.226 7.73 32.39 13.96
12/31/2022 8:15:00 AM 0.88 33.584 0.224 7.74 31.95 13.97
12/31/2022 8:30:00 AM 0.87 33.566 0.224 7.72 32.74 13.97
12/31/2022 8:45:00 AM 0.87 33.566 0.222 7.73 34.04 13.97
12/31/2022 9:00:00 AM 0.86 33.548 0.222 7.72 33.08 13.98
12/31/2022 9:15:00 AM 0.84 33.512 0.221 7.71 32.36 13.98
12/31/2022 9:30:00 AM 0.83 33.494 0.222 7.71 32.65 13.99
12/31/2022 9:45:00 AM 0.82 33.476 0.221 7.71 32.68 14.01
12/31/2022 10:00:00 AM 0.81 33.458 0.222 7.71 34.97 14.02
12/31/2022 10:15:00 AM 0.8 33.44 0.222 7.71 33.2 14.03
12/31/2022 10:30:00 AM 0.8 33.44 0.222 7.71 32.29 14.04
12/31/2022 10:45:00 AM 0.79 33.422 0.223 7.72 32.03 14.05
12/31/2022 11:00:00 AM 0.78 33.404 0.224 7.71 31.79 14.06
12/31/2022 11:15:00 AM 0.77 33.386 0.225 7.72 31.6 14.07
12/31/2022 11:30:00 AM 0.77 33.386 0.227 7.72 30.46 14.08
12/31/2022 11:45:00 AM 0.77 33.386 0.228 7.72 30.02 14.09
12/31/2022 12:00:00 PM 0.78 33.404 0.229 7.72 30.84 14.11
12/31/2022 12:15:00 PM 0.79 33.422 0.231 7.73 30.4 14.12
12/31/2022 12:30:00 PM 0.8 33.44 0.232 7.73 30.55 14.13
12/31/2022 12:45:00 PM 0.81 33.458 0.233 7.73 30.75 14.14
12/31/2022 1:00:00 PM 0.83 33.494 0.234 7.75 31.45 14.15
12/31/2022 1:15:00 PM 0.83 33.494 0.235 7.75 30.62 14.15
12/31/2022 1:30:00 PM 0.83 33.494 0.237 7.75 31.47 14.16
12/31/2022 1:45:00 PM 0.83 33.494 0.237 7.76 32.61 14.16
12/31/2022 2:00:00 PM 0.83 33.494 0.239 7.76 32.86 14.16
12/31/2022 2:15:00 PM 0.82 33.476 0.24 7.76 34.22 14.16
12/31/2022 2:30:00 PM 0.83 33.494 0.242 7.76 35.29 14.16
12/31/2022 2:45:00 PM 0.84 33.512 0.243 7.77 34.61 14.08
12/31/2022 3:00:00 PM 0.86 33.548 0.244 7.77 35.36 14.14
12/31/2022 3:15:00 PM 0.88 33.584 0.245 7.77 36.61 14.14
12/31/2022 3:30:00 PM 0.9 33.62 0.246 7.77 38.5 14.14
12/31/2022 3:45:00 PM 0.92 33.656 0.246 7.78 37.3 14.13
12/31/2022 4:00:00 PM 0.94 33.692 0.247 7.78 39.7 14.12
12/31/2022 4:15:00 PM 0.95 33.71 0.247 7.78 37.18 14.11
12/31/2022 4:30:00 PM 0.96 33.728 0.249 7.78 37.09 14.1
12/31/2022 4:45:00 PM 0.98 33.764 0.249 7.77 37.56 14.09
12/31/2022 5:00:00 PM 0.99 33.782 0.249 7.78 36.98 14.08
12/31/2022 5:15:00 PM 1.01 33.818 0.25 7.76 36.94 14.07
12/31/2022 5:30:00 PM 1.02 33.836 0.25 7.78 36.59 14.06
12/31/2022 5:45:00 PM 1.03 33.854 0.249 7.79 35.64 14.05
12/31/2022 6:00:00 PM 1.05 33.89 0.25 7.78 35.94 14.05
12/31/2022 6:15:00 PM 1.06 33.908 0.249 7.78 33.97 14.04
12/31/2022 6:30:00 PM 1.08 33.944 0.25 7.78 32.73 14.03
12/31/2022 6:45:00 PM 1.09 33.962 0.249 7.78 31.93 14.03
12/31/2022 7:00:00 PM 1.1 33.98 0.249 7.78 30.91 14.03
12/31/2022 7:15:00 PM 1.12 34.016 0.248 7.78 31.97 14.02
12/31/2022 7:30:00 PM 1.13 34.034 0.248 7.78 30.82 14.01
12/31/2022 7:45:00 PM 1.14 34.052 0.247 7.78 30.65 14.01
12/31/2022 8:00:00 PM 1.15 34.07 0.246 7.77 30.98 14
12/31/2022 8:15:00 PM 1.16 34.088 0.245 7.78 29.89 14
12/31/2022 8:30:00 PM 1.17 34.106 0.243 7.78 29.94 13.99
12/31/2022 8:45:00 PM 1.18 34.124 0.242 7.78 29.64 13.98
12/31/2022 9:00:00 PM 1.2 34.16 0.241 7.77 29.18 13.97
12/31/2022 9:15:00 PM 1.2 34.16 0.24 7.76 30.01 13.96
12/31/2022 9:30:00 PM 1.21 34.178 0.239 7.78 29.05 13.96
12/31/2022 9:45:00 PM 1.22 34.196 0.238 7.77 29.59 13.96
12/31/2022 10:00:00 PM 1.22 34.196 0.237 7.77 31.2 13.95
12/31/2022 10:15:00 PM 1.23 34.214 0.236 7.75 31.71 13.93
12/31/2022 10:30:00 PM 1.24 34.232 0.235 7.77 31.76 13.92
12/31/2022 10:45:00 PM 1.24 34.232 0.234 7.77 32.63 13.92
12/31/2022 11:00:00 PM 1.24 34.232 0.233 7.78 34.99 13.92
12/31/2022 11:15:00 PM 1.23 34.214 0.232 7.76 34 13.9
12/31/2022 11:30:00 PM 1.24 34.232 0.231 7.77 36.24 13.89
12/31/2022 11:45:00 PM 1.24 34.232 0.23 7.77 36.13 13.89
1/1/2023 12:00:00 AM 1.23 34.214 0.229 7.77 37.98 13.88
1/1/2023 12:15:00 AM 1.23 34.214 0.228 7.77 38.06 13.88
1/1/2023 12:30:00 AM 1.24 34.232 0.226 7.77 39.46 13.87
1/1/2023 12:45:00 AM 1.25 34.25 0.225 7.77 40.59 13.87
1/1/2023 1:00:00 AM 1.26 34.268 0.223 7.77 41.9 13.85
1/1/2023 1:15:00 AM 1.27 34.286 0.223 7.76 41.75 13.85
1/1/2023 1:30:00 AM 1.28 34.304 0.222 7.76 41.57 13.84
1/1/2023 1:45:00 AM 1.3 34.34 0.221 7.78 42.47 13.85
1/1/2023 2:00:00 AM 1.32 34.376 0.22 7.77 41.9 13.84
1/1/2023 2:15:00 AM 1.34 34.412 0.22 7.76 41.81 13.83
1/1/2023 2:30:00 AM 1.34 34.412 0.22 7.78 42.45 13.83
1/1/2023 2:45:00 AM 1.35 34.43 0.22 7.77 41.06 13.82
1/1/2023 3:00:00 AM 1.35 34.43 0.219 7.77 41.31 13.82
1/1/2023 3:15:00 AM 1.35 34.43 0.219 7.77 41.11 13.83
1/1/2023 3:30:00 AM 1.35 34.43 0.219 7.77 40.73 13.83
1/1/2023 3:45:00 AM 1.35 34.43 0.219 7.77 40.42 13.83
1/1/2023 4:00:00 AM 1.35 34.43 0.218 7.77 41.22 13.82
1/1/2023 4:15:00 AM 1.35 34.43 0.219 7.77 41.94 13.82
1/1/2023 4:30:00 AM 1.34 34.412 0.218 7.77 39.84 13.81
1/1/2023 4:45:00 AM 1.34 34.412 0.219 7.77 39.3 13.81
1/1/2023 5:00:00 AM 1.34 34.412 0.218 7.77 41.28 13.82
1/1/2023 5:15:00 AM 1.35 34.43 0.219 7.77 40.48 13.81
1/1/2023 5:30:00 AM 1.35 34.43 0.218 7.77 40.33 13.82
1/1/2023 5:45:00 AM 1.35 34.43 0.218 7.77 39.64 13.81
1/1/2023 6:00:00 AM 1.34 34.412 0.218 7.77 39.49 13.81
1/1/2023 6:15:00 AM 1.34 34.412 0.218 7.77 38.9 13.8
1/1/2023 6:30:00 AM 1.34 34.412 0.218 7.77 38.86 13.81
1/1/2023 6:45:00 AM 1.34 34.412 0.218 7.75 39.56 13.8
1/1/2023 7:00:00 AM 1.35 34.43 0.218 7.77 40.34 13.8
1/1/2023 7:15:00 AM 1.35 34.43 0.218 7.78 39.33 13.81
1/1/2023 7:30:00 AM 1.34 34.412 0.218 7.77 40.4 13.81
1/1/2023 7:45:00 AM 1.34 34.412 0.217 7.75 40.71 13.81
1/1/2023 8:00:00 AM 1.34 34.412 0.218 7.77 39.89 13.81
1/1/2023 8:15:00 AM 1.34 34.412 0.217 7.77 38.71 13.81
1/1/2023 8:30:00 AM 1.34 34.412 0.217 7.77 36.95 13.81
1/1/2023 8:45:00 AM 1.35 34.43 0.217 7.76 36.23 13.75
1/1/2023 9:00:00 AM 1.35 34.43 0.216 7.77 35.64 13.8
1/1/2023 9:15:00 AM 1.36 34.448 0.217 7.76 35.65 13.82
1/1/2023 9:30:00 AM 1.36 34.448 0.216 7.76 36.19 13.83
1/1/2023 9:45:00 AM 1.37 34.466 0.217 7.75 34.32 13.82
1/1/2023 10:00:00 AM 1.38 34.484 0.216 7.77 34.29 13.84
1/1/2023 10:15:00 AM 1.39 34.502 0.217 7.77 33.93 13.83
1/1/2023 10:30:00 AM 1.41 34.538 0.216 7.77 32.97 13.85
1/1/2023 10:45:00 AM 1.41 34.538 0.216 7.77 33.57 13.84
1/1/2023 11:00:00 AM 1.42 34.556 0.216 7.76 32.79 13.85
1/1/2023 11:15:00 AM 1.42 34.556 0.216 7.77 32.77 13.85
1/1/2023 11:30:00 AM 1.43 34.574 0.216 7.77 31.95 13.86
1/1/2023 11:45:00 AM 1.45 34.61 0.216 7.77 33.49 13.86
1/1/2023 12:00:00 PM 1.47 34.646 0.216 7.77 33.11 13.87
1/1/2023 12:15:00 PM 1.49 34.682 0.216 7.78 33.6 13.88
1/1/2023 12:30:00 PM 1.51 34.718 0.216 7.76 31.66 13.88
1/1/2023 12:45:00 PM 1.53 34.754 0.216 7.78 31.19 13.88
1/1/2023 1:00:00 PM 1.54 34.772 0.215 7.76 31.81 13.89
1/1/2023 1:15:00 PM 1.55 34.79 0.216 7.78 32.49 13.89
1/1/2023 1:30:00 PM 1.56 34.808 0.215 7.78 31.87 13.89
1/1/2023 1:45:00 PM 1.58 34.844 0.215 7.78 33.13 13.88
1/1/2023 2:00:00 PM 1.6 34.88 0.215 7.78 33.64 13.89
1/1/2023 2:15:00 PM 1.63 34.934 0.215 7.78 33.92 13.89
1/1/2023 2:30:00 PM 1.64 34.952 0.215 7.78 34.06 13.89
1/1/2023 2:45:00 PM 1.65 34.97 0.216 7.78 34.84 13.88
1/1/2023 3:00:00 PM 1.66 34.988 0.215 7.78 36.65 13.87
1/1/2023 3:15:00 PM 1.67 35.006 0.216 7.78 37.33 13.88
1/1/2023 3:30:00 PM 1.68 35.024 0.215 7.78 38.6 13.87
1/1/2023 3:45:00 PM 1.68 35.024 0.216 7.78 38.66 13.87
1/1/2023 4:00:00 PM 1.68 35.024 0.216 7.78 38.35 13.87
1/1/2023 4:15:00 PM 1.68 35.024 0.216 7.79 38.91 13.87
1/1/2023 4:30:00 PM 1.67 35.006 0.216 7.78 40.07 13.87
1/1/2023 4:45:00 PM 1.68 35.024 0.216 7.77 40.45 13.87
1/1/2023 5:00:00 PM 1.68 35.024 0.216 7.79 40.35 13.86
1/1/2023 5:15:00 PM 1.69 35.042 0.216 7.78 39.48 13.86
1/1/2023 5:30:00 PM 1.7 35.06 0.215 7.79 38.51 13.86
1/1/2023 5:45:00 PM 1.69 35.042 0.215 7.78 37.69 13.85
1/1/2023 6:00:00 PM 1.61 34.898 0.215 7.79 39.72 13.84
1/1/2023 6:15:00 PM 1.42 34.556 0.215 7.78 41.76 13.82
1/1/2023 6:30:00 PM 1.2 34.16 0.213 7.78 41.44 13.83
1/1/2023 6:45:00 PM 1 33.8 0.214 7.76 46.86 13.84
1/1/2023 7:00:00 PM 0.84 33.512 0.213 7.79 54.32 13.85
1/1/2023 7:15:00 PM 0.74 33.332 0.215 7.79 67.6 13.86
1/1/2023 7:30:00 PM 0.68 33.224 0.216 7.83 85.73 13.87
1/1/2023 7:45:00 PM 0.66 33.188 0.218 7.85 93.21 13.88
1/1/2023 8:00:00 PM 0.7 33.26 0.22 7.85 96.44 13.89
1/1/2023 8:15:00 PM 0.77 33.386 0.221 7.85 95.29 13.9
1/1/2023 8:30:00 PM 0.87 33.566 0.22 7.83 87.2 13.9
1/1/2023 8:45:00 PM 0.97 33.746 0.22 7.84 78.12 13.9
1/1/2023 9:00:00 PM 1.08 33.944 0.22 7.82 67.94 13.9
1/1/2023 9:15:00 PM 1.19 34.142 0.219 7.81 59.35 13.9
1/1/2023 9:30:00 PM 1.28 34.304 0.218 7.8 53.91 13.88
1/1/2023 9:45:00 PM 1.36 34.448 0.217 7.78 49.51 13.88
1/1/2023 10:00:00 PM 1.43 34.574 0.216 7.8 44.36 13.87
1/1/2023 10:15:00 PM 1.49 34.682 0.216 7.79 41.19 13.87
1/1/2023 10:30:00 PM 1.53 34.754 0.214 7.79 39.26 13.86
1/1/2023 10:45:00 PM 1.58 34.844 0.214 7.78 37.6 13.86
1/1/2023 11:00:00 PM 1.61 34.898 0.213 7.78 35.91 13.86
1/1/2023 11:15:00 PM 1.64 34.952 0.213 7.77 33.75 13.86
1/1/2023 11:30:00 PM 1.67 35.006 0.213 7.77 33.5 13.86
1/1/2023 11:45:00 PM 1.69 35.042 0.212 7.77 33.16 13.86
1/2/2023 12:00:00 AM 1.71 35.078 0.213 7.77 32.49 13.85
1/2/2023 12:15:00 AM 1.73 35.114 0.212 7.77 31.05 13.85
1/2/2023 12:30:00 AM 1.75 35.15 0.212 7.77 35.02 13.85
1/2/2023 12:45:00 AM 1.76 35.168 0.212 7.76 31.82 13.84
1/2/2023 1:00:00 AM 1.77 35.186 0.212 7.76 28.67 13.84
1/2/2023 1:15:00 AM 1.78 35.204 0.211 7.76 28.51 13.84
1/2/2023 1:30:00 AM 1.79 35.222 0.212 7.76 28.27 13.83
1/2/2023 1:45:00 AM 1.79 35.222 0.211 7.74 28.12 13.83
1/2/2023 2:00:00 AM 1.79 35.222 0.212 7.76 28.12 13.83
1/2/2023 2:15:00 AM 1.79 35.222 0.212 7.75 28.12 13.82
1/2/2023 2:30:00 AM 1.79 35.222 0.212 7.76 27.5 13.81
1/2/2023 2:45:00 AM 1.79 35.222 0.212 7.75 27.36 13.81
1/2/2023 3:00:00 AM 1.78 35.204 0.213 7.75 26.48 13.81
1/2/2023 3:15:00 AM 1.78 35.204 0.212 7.73 26.35 13.81
1/2/2023 3:30:00 AM 1.78 35.204 0.213 7.76 27.33 13.81
1/2/2023 3:45:00 AM 1.77 35.186 0.212 7.75 25.92 13.8
1/2/2023 4:00:00 AM 1.77 35.186 0.213 7.74 26.59 13.8
1/2/2023 4:15:00 AM 1.77 35.186 0.212 7.75 26.39 13.79
1/2/2023 4:30:00 AM 1.77 35.186 0.213 7.73 26.37 13.79
1/2/2023 4:45:00 AM 1.77 35.186 0.212 7.74 27.53 13.79
1/2/2023 5:00:00 AM 1.77 35.186 0.212 7.74 26.05 13.78
1/2/2023 5:15:00 AM 1.77 35.186 0.212 7.74 26 13.78
1/2/2023 5:30:00 AM 1.77 35.186 0.212 7.74 26.17 13.77
1/2/2023 5:45:00 AM 1.76 35.168 0.211 7.73 26.06 13.76
1/2/2023 6:00:00 AM 1.76 35.168 0.211 7.72 26.07 13.76
1/2/2023 6:15:00 AM 1.76 35.168 0.211 7.74 26.23 13.76
1/2/2023 6:30:00 AM 1.75 35.15 0.211 7.73 25.74 13.76
1/2/2023 6:45:00 AM 1.75 35.15 0.21 7.73 25.8 13.76
1/2/2023 7:00:00 AM 1.74 35.132 0.211 7.73 24.84 13.75
1/2/2023 7:15:00 AM 1.74 35.132 0.21 7.72 25.99 13.75
1/2/2023 7:30:00 AM 1.73 35.114 0.21 7.7 26.85 13.75
1/2/2023 7:45:00 AM 1.72 35.096 0.21 7.73 26.37 13.75
1/2/2023 8:00:00 AM 1.71 35.078 0.21 7.72 26.68 13.75
1/2/2023 8:15:00 AM 1.71 35.078 0.21 7.72 25.91 13.75
1/2/2023 8:30:00 AM 1.7 35.06 0.21 7.71 25.33 13.75
1/2/2023 8:45:00 AM 1.7 35.06 0.21 7.72 24.81 13.76
1/2/2023 9:00:00 AM 1.7 35.06 0.21 7.72 25.8 13.76
1/2/2023 9:15:00 AM 1.71 35.078 0.209 7.71 24.63 13.77
1/2/2023 9:30:00 AM 1.72 35.096 0.209 7.73 25.36 13.77
1/2/2023 9:45:00 AM 1.73 35.114 0.21 7.71 26.39 13.78
1/2/2023 10:00:00 AM 1.75 35.15 0.209 7.73 24.59 13.78
1/2/2023 10:15:00 AM 1.77 35.186 0.209 7.73 25.49 13.79
1/2/2023 10:30:00 AM 1.79 35.222 0.209 7.73 24.83 13.8
1/2/2023 10:45:00 AM 1.82 35.276 0.209 7.73 24.73 13.8
1/2/2023 11:00:00 AM 1.84 35.312 0.208 7.73 24.3 13.81
1/2/2023 11:15:00 AM 1.88 35.384 0.208 7.72 24.45 13.81
1/2/2023 11:30:00 AM 1.92 35.456 0.208 7.74 24.66 13.82
1/2/2023 11:45:00 AM 1.95 35.51 0.208 7.74 25.37 13.82
1/2/2023 12:00:00 PM 1.98 35.564 0.207 7.74 23.41 13.82
1/2/2023 12:15:00 PM 2 35.6 0.207 7.74 23.12 13.83
1/2/2023 12:30:00 PM 2.02 35.636 0.207 7.74 23.49 13.83
1/2/2023 12:45:00 PM 2.04 35.672 0.207 7.74 23.28 13.84
1/2/2023 1:00:00 PM 2.06 35.708 0.207 7.74 24.94 13.84
1/2/2023 1:15:00 PM 2.08 35.744 0.207 7.75 24.57 13.84
1/2/2023 1:30:00 PM 2.1 35.78 0.207 7.75 25.01 13.84
1/2/2023 1:45:00 PM 2.11 35.798 0.207 7.76 24.52 13.84
1/2/2023 2:00:00 PM 2.12 35.816 0.208 7.75 24.18 13.84
1/2/2023 2:15:00 PM 2.12 35.816 0.208 7.76 24.35 13.84
1/2/2023 2:30:00 PM 2.12 35.816 0.209 7.76 24.47 13.84
1/2/2023 2:45:00 PM 2.13 35.834 0.209 7.76 25.01 13.83
1/2/2023 3:00:00 PM 2.13 35.834 0.209 7.75 24.81 13.83
1/2/2023 3:15:00 PM 2.14 35.852 0.209 7.76 26.01 13.82
1/2/2023 3:30:00 PM 2.13 35.834 0.21 7.76 25.17 13.81
1/2/2023 3:45:00 PM 2.13 35.834 0.21 7.76 26.91 13.81
1/2/2023 4:00:00 PM 2.11 35.798 0.211 7.76 26.4 13.81
1/2/2023 4:15:00 PM 2.09 35.762 0.21 7.75 25.72 13.8
1/2/2023 4:30:00 PM 2.08 35.744 0.211 7.76 25.47 13.8
1/2/2023 4:45:00 PM 2.07 35.726 0.211 7.76 25.64 13.8
1/2/2023 5:00:00 PM 2.07 35.726 0.211 7.76 25.19 13.8
1/2/2023 5:15:00 PM 2.08 35.744 0.211 7.76 25.8 13.8
1/2/2023 5:30:00 PM 2.08 35.744 0.211 7.76 24.83 13.79
1/2/2023 5:45:00 PM 2.1 35.78 0.211 7.76 24.55 13.78
1/2/2023 6:00:00 PM 2.12 35.816 0.212 7.75 23.66 13.78
1/2/2023 6:15:00 PM 2.13 35.834 0.211 7.77 24.23 13.78
1/2/2023 6:30:00 PM 2.15 35.87 0.211 7.76 24.47 13.78
1/2/2023 6:45:00 PM 2.16 35.888 0.212 7.76 24.17 13.77
1/2/2023 7:00:00 PM 2.18 35.924 0.211 7.76 22.68 13.77
1/2/2023 7:15:00 PM 2.2 35.96 0.212 7.76 23.37 13.77
1/2/2023 7:30:00 PM 2.22 35.996 0.212 7.76 23.46 13.76
1/2/2023 7:45:00 PM 2.24 36.032 0.212 7.76 22.87 13.76
1/2/2023 8:00:00 PM 2.25 36.05 0.212 7.77 22.65 13.75
1/2/2023 8:15:00 PM 2.26 36.068 0.212 7.76 23.38 13.75
1/2/2023 8:30:00 PM 2.27 36.086 0.212 7.76 22.09 13.74
1/2/2023 8:45:00 PM 2.28 36.104 0.212 7.76 22.53 13.74
1/2/2023 9:00:00 PM 2.28 36.104 0.211 7.76 21.59 13.73
1/2/2023 9:15:00 PM 2.29 36.122 0.212 7.76 21.32 13.73
1/2/2023 9:30:00 PM 2.29 36.122 0.212 7.75 20.89 13.72
1/2/2023 9:45:00 PM 2.3 36.14 0.212 7.77 21.22 13.71
1/2/2023 10:00:00 PM 2.3 36.14 0.212 7.76 19.97 13.7
1/2/2023 10:15:00 PM 2.3 36.14 0.212 7.76 20.31 13.7
1/2/2023 10:30:00 PM 2.31 36.158 0.212 7.76 20.69 13.69
1/2/2023 10:45:00 PM 2.31 36.158 0.212 7.76 19.57 13.68
1/2/2023 11:00:00 PM 2.31 36.158 0.213 7.77 19.19 13.67
1/2/2023 11:15:00 PM 2.3 36.14 0.213 7.76 19.69 13.67
1/2/2023 11:30:00 PM 2.3 36.14 0.212 7.76 19.77 13.66
1/2/2023 11:45:00 PM 2.3 36.14 0.213 7.75 20.24 13.65
1/3/2023 12:00:00 AM 2.3 36.14 0.213 7.76 19.17 13.65
1/3/2023 12:15:00 AM 2.29 36.122 0.213 7.75 19.33 13.64
1/3/2023 12:30:00 AM 2.29 36.122 0.213 7.77 20 13.63
1/3/2023 12:45:00 AM 2.29 36.122 0.214 7.75 19.28 13.63
1/3/2023 1:00:00 AM 2.29 36.122 0.214 7.77 18.52 13.61
1/3/2023 1:15:00 AM 2.3 36.14 0.215 7.76 19.77 13.6
1/3/2023 1:30:00 AM 2.31 36.158 0.215 7.77 18.92 13.6
1/3/2023 1:45:00 AM 2.32 36.176 0.215 7.76 18.09 13.58
1/3/2023 2:00:00 AM 2.33 36.194 0.215 7.76 18.97 13.57
1/3/2023 2:15:00 AM 2.34 36.212 0.216 7.76 18.47 13.57
1/3/2023 2:30:00 AM 2.35 36.23 0.216 7.76 18.81 13.56
1/3/2023 2:45:00 AM 2.36 36.248 0.217 7.76 18.66 13.55
1/3/2023 3:00:00 AM 2.37 36.266 0.217 7.75 18.16 13.54
1/3/2023 3:15:00 AM 2.38 36.284 0.218 7.76 18.07 13.53
1/3/2023 3:30:00 AM 2.38 36.284 0.217 7.76 17.84 13.52
1/3/2023 3:45:00 AM 2.39 36.302 0.218 7.76 18.33 13.51
1/3/2023 4:00:00 AM 2.4 36.32 0.218 7.76 18.61 13.5
1/3/2023 4:15:00 AM 2.41 36.338 0.219 7.76 18.36 13.49
1/3/2023 4:30:00 AM 2.41 36.338 0.219 7.75 17.76 13.49
1/3/2023 4:45:00 AM 2.42 36.356 0.219 7.76 17.85 13.47
1/3/2023 5:00:00 AM 2.43 36.374 0.218 7.77 17.66 13.47
1/3/2023 5:15:00 AM 2.43 36.374 0.219 7.76 17.8 13.46
1/3/2023 5:30:00 AM 2.44 36.392 0.219 7.76 17.73 13.45
1/3/2023 5:45:00 AM 2.45 36.41 0.219 7.76 17.53 13.44
1/3/2023 6:00:00 AM 2.46 36.428 0.219 7.76 17.45 13.43
1/3/2023 6:15:00 AM 2.46 36.428 0.219 7.76 17.8 13.43
1/3/2023 6:30:00 AM 2.47 36.446 0.22 7.75 17.5 13.42
1/3/2023 6:45:00 AM 2.48 36.464 0.219 7.75 17.25 13.41
1/3/2023 7:00:00 AM 2.48 36.464 0.219 7.75 16.79 13.4
1/3/2023 7:15:00 AM 2.48 36.464 0.219 7.76 17.56 13.4
1/3/2023 7:30:00 AM 2.48 36.464 0.219 7.75 17.57 13.39
1/3/2023 7:45:00 AM 2.48 36.464 0.219 7.76 17.44 13.39
1/3/2023 8:00:00 AM 2.48 36.464 0.219 7.74 18.02 13.39
1/3/2023 8:15:00 AM 2.48 36.464 0.218 7.76 16.98 13.39
1/3/2023 8:30:00 AM 2.47 36.446 0.218 7.74 17.02 13.39
1/3/2023 8:45:00 AM 2.47 36.446 0.218 7.75 16.86 13.38
1/3/2023 9:00:00 AM 2.47 36.446 0.218 7.75 16.83 13.39
1/3/2023 9:15:00 AM 2.47 36.446 0.218 7.75 17.2 13.39
1/3/2023 9:30:00 AM 2.47 36.446 0.218 7.75 17.04 13.39
1/3/2023 9:45:00 AM 2.48 36.464 0.217 7.75 16.75 13.4
1/3/2023 10:00:00 AM 2.48 36.464 0.218 7.75 17.12 13.4
1/3/2023 10:15:00 AM 2.48 36.464 0.218 7.73 17.3 13.41
1/3/2023 10:30:00 AM 2.48 36.464 0.217 7.75 17.26 13.42
1/3/2023 10:45:00 AM 2.49 36.482 0.218 7.75 19.6 13.42
1/3/2023 11:00:00 AM 2.5 36.5 0.218 7.75 17.71 13.42
1/3/2023 11:15:00 AM 2.5 36.5 0.218 7.75 18.27 13.43
1/3/2023 11:30:00 AM 2.51 36.518 0.218 7.75 17.06 13.43
1/3/2023 11:45:00 AM 2.51 36.518 0.219 7.74 17.89 13.43
1/3/2023 12:00:00 PM 2.52 36.536 0.218 7.75 17.9 13.45
1/3/2023 12:15:00 PM 2.53 36.554 0.219 7.75 17.62 13.45
1/3/2023 12:30:00 PM 2.55 36.59 0.218 7.76 18.35 13.46
1/3/2023 12:45:00 PM 2.56 36.608 0.219 7.74 18.39 13.47
1/3/2023 1:00:00 PM 2.57 36.626 0.218 7.76 17.43 13.47
1/3/2023 1:15:00 PM 2.59 36.662 0.219 7.74 17.53 13.48
1/3/2023 1:30:00 PM 2.6 36.68 0.219 7.76 17.54 13.49
1/3/2023 1:45:00 PM 2.61 36.698 0.219 7.76 17.31 13.49
1/3/2023 2:00:00 PM 2.61 36.698 0.219 7.76 17.12 13.5
1/3/2023 2:15:00 PM 2.62 36.716 0.219 7.76 17.29 13.5
1/3/2023 2:30:00 PM 2.63 36.734 0.22 7.76 16.98 13.5
1/3/2023 2:45:00 PM 2.64 36.752 0.22 7.76 17.74 13.5
1/3/2023 3:00:00 PM 2.64 36.752 0.219 7.76 17.21 13.5
1/3/2023 3:15:00 PM 2.65 36.77 0.22 7.77 17.36 13.42
1/3/2023 3:30:00 PM 2.65 36.77 0.219 7.76 16.78 13.47
1/3/2023 3:45:00 PM 2.66 36.788 0.22 7.76 17.18 13.48
1/3/2023 4:00:00 PM 2.67 36.806 0.221 7.75 17.01 13.47
1/3/2023 4:15:00 PM 2.69 36.842 0.222 7.74 17.39 13.46
1/3/2023 4:30:00 PM 2.69 36.842 0.223 7.76 17.72 13.45
1/3/2023 4:45:00 PM 2.71 36.878 0.225 7.75 17.94 13.43
1/3/2023 5:00:00 PM 2.72 36.896 0.227 7.75 18.78 13.42
1/3/2023 5:15:00 PM 2.73 36.914 0.228 7.74 18.89 13.41
1/3/2023 5:30:00 PM 2.74 36.932 0.229 7.73 18.74 13.4
1/3/2023 5:45:00 PM 2.75 36.95 0.229 7.74 19.4 13.38
1/3/2023 6:00:00 PM 2.76 36.968 0.23 7.74 20.12 13.37
1/3/2023 6:15:00 PM 2.77 36.986 0.229 7.73 19.77 13.37
1/3/2023 6:30:00 PM 2.79 37.022 0.23 7.74 19.05 13.36
1/3/2023 6:45:00 PM 2.8 37.04 0.23 7.73 19.7 13.35
1/3/2023 7:00:00 PM 2.81 37.058 0.23 7.72 19.81 13.35
1/3/2023 7:15:00 PM 2.82 37.076 0.23 7.74 20.44 13.34
1/3/2023 7:30:00 PM 2.84 37.112 0.231 7.73 19.91 13.33
1/3/2023 7:45:00 PM 2.85 37.13 0.231 7.73 21.01 13.32
1/3/2023 8:00:00 PM 2.87 37.166 0.231 7.73 20.59 13.31
1/3/2023 8:15:00 PM 2.88 37.184 0.231 7.72 20.4 13.31
1/3/2023 8:30:00 PM 2.89 37.202 0.23 7.73 21.13 13.31
1/3/2023 8:45:00 PM 2.91 37.238 0.231 7.73 20.72 13.3
1/3/2023 9:00:00 PM 2.92 37.256 0.23 7.71 21.03 13.29
1/3/2023 9:15:00 PM 2.93 37.274 0.229 7.73 21.18 13.29
1/3/2023 9:30:00 PM 2.94 37.292 0.229 7.72 21.44 13.28
1/3/2023 9:45:00 PM 2.95 37.31 0.229 7.72 21.19 13.28
1/3/2023 10:00:00 PM 2.97 37.346 0.228 7.73 22.64 13.27
1/3/2023 10:15:00 PM 2.98 37.364 0.228 7.72 22.81 13.26
1/3/2023 10:30:00 PM 3 37.4 0.228 7.72 23.54 13.25
1/3/2023 10:45:00 PM 3.01 37.418 0.228 7.72 23.82 13.18
1/3/2023 11:00:00 PM 3.03 37.454 0.227 7.72 24.42 13.23
1/3/2023 11:15:00 PM 3.04 37.472 0.227 7.71 25.56 13.23
1/3/2023 11:30:00 PM 3.05 37.49 0.226 7.71 26.9 13.22
1/3/2023 11:45:00 PM 3.06 37.508 0.226 7.71 28.85 13.21
1/4/2023 12:00:00 AM 3.07 37.526 0.225 7.7 31.55 13.2
1/4/2023 12:15:00 AM 3.08 37.544 0.225 7.7 33.29 13.19
1/4/2023 12:30:00 AM 3.09 37.562 0.224 7.71 35.67 13.18
1/4/2023 12:45:00 AM 3.09 37.562 0.223 7.7 37.7 13.17
1/4/2023 1:00:00 AM 3.09 37.562 0.221 7.7 40.19 13.16
1/4/2023 1:15:00 AM 3.09 37.562 0.22 7.69 39.62 13.16
1/4/2023 1:30:00 AM 3.09 37.562 0.218 7.69 40.62 13.16
1/4/2023 1:45:00 AM 3.09 37.562 0.217 7.69 40.11 13.16
1/4/2023 2:00:00 AM 3.08 37.544 0.215 7.68 41.18 13.16
1/4/2023 2:15:00 AM 3.08 37.544 0.213 7.68 43.58 13.16
1/4/2023 2:30:00 AM 3.07 37.526 0.211 7.68 42.99 13.16
1/4/2023 2:45:00 AM 3.06 37.508 0.209 7.66 48.44 13.16
1/4/2023 3:00:00 AM 3.06 37.508 0.208 7.67 43.52 13.16
1/4/2023 3:15:00 AM 3.05 37.49 0.207 7.65 43.44 13.17
1/4/2023 3:30:00 AM 3.04 37.472 0.205 7.66 44.26 13.17
1/4/2023 3:45:00 AM 3.04 37.472 0.204 7.66 44.85 13.18
1/4/2023 4:00:00 AM 3.04 37.472 0.203 7.66 45.96 13.19
1/4/2023 4:15:00 AM 3.03 37.454 0.203 7.65 44.77 13.19
1/4/2023 4:30:00 AM 3.02 37.436 0.201 7.64 44.3 13.2
1/4/2023 4:45:00 AM 3.02 37.436 0.201 7.64 44.68 13.21
1/4/2023 5:00:00 AM 3.02 37.436 0.2 7.64 43.44 13.22
1/4/2023 5:15:00 AM 3.02 37.436 0.2 7.62 45.57 13.22
1/4/2023 5:30:00 AM 3.02 37.436 0.199 7.64 44.99 13.23
1/4/2023 5:45:00 AM 3.03 37.454 0.199 7.63 41.34 13.23
1/4/2023 6:00:00 AM 3.03 37.454 0.198 7.63 42.34 13.24
1/4/2023 6:15:00 AM 3.04 37.472 0.199 7.62 42.99 13.25
1/4/2023 6:30:00 AM 3.04 37.472 0.198 7.62 42.92 13.25
1/4/2023 6:45:00 AM 3.04 37.472 0.198 7.62 42.54 13.26
1/4/2023 7:00:00 AM 3.04 37.472 0.197 7.62 42.13 13.27
1/4/2023 7:15:00 AM 3.04 37.472 0.198 7.62 41.44 13.27
1/4/2023 7:30:00 AM 3.05 37.49 0.197 7.62 42.61 13.27
1/4/2023 7:45:00 AM 3.05 37.49 0.197 7.6 41.15 13.27
1/4/2023 8:00:00 AM 3.06 37.508 0.197 7.63 41.01 13.27
1/4/2023 8:15:00 AM 3.06 37.508 0.198 7.62 41.83 13.21
1/4/2023 8:30:00 AM 3.07 37.526 0.197 7.62 42.12 13.26
1/4/2023 8:45:00 AM 3.07 37.526 0.198 7.62 42.13 13.27
1/4/2023 9:00:00 AM 3.08 37.544 0.197 7.61 42.68 13.27
1/4/2023 9:15:00 AM 3.09 37.562 0.198 7.63 44.5 13.27
1/4/2023 9:30:00 AM 3.11 37.598 0.198 7.62 42.96 13.27
1/4/2023 9:45:00 AM 3.12 37.616 0.197 7.62 44.09 13.27
1/4/2023 10:00:00 AM 3.14 37.652 0.198 7.62 42.52 13.27
1/4/2023 10:15:00 AM 3.16 37.688 0.198 7.63 44.32 13.27
1/4/2023 10:30:00 AM 3.18 37.724 0.198 7.62 45.71 13.27
1/4/2023 10:45:00 AM 3.2 37.76 0.198 7.62 45.37 13.27
1/4/2023 11:00:00 AM 3.22 37.796 0.198 7.63 44.42 13.27
1/4/2023 11:15:00 AM 3.23 37.814 0.198 7.63 43.83 13.26
1/4/2023 11:30:00 AM 3.25 37.85 0.198 7.63 47.14 13.26
1/4/2023 11:45:00 AM 3.27 37.886 0.198 7.61 43.76 13.26
1/4/2023 12:00:00 PM 3.29 37.922 0.198 7.64 45.18 13.26
1/4/2023 12:15:00 PM 3.3 37.94 0.198 7.63 44.75 13.26
1/4/2023 12:30:00 PM 3.32 37.976 0.198 7.62 43.62 13.26
1/4/2023 12:45:00 PM 3.34 38.012 0.198 7.64 43.74 13.25
1/4/2023 1:00:00 PM 3.36 38.048 0.199 7.63 45.04 13.25
1/4/2023 1:15:00 PM 3.38 38.084 0.199 7.64 43.73 13.25
1/4/2023 1:30:00 PM 3.39 38.102 0.2 7.64 43.32 13.24
1/4/2023 1:45:00 PM 3.4 38.12 0.199 7.64 43.54 13.24
1/4/2023 2:00:00 PM 3.41 38.138 0.2 7.64 42.61 13.24
1/4/2023 2:15:00 PM 3.43 38.174 0.2 7.65 42.5 13.23
1/4/2023 2:30:00 PM 3.43 38.174 0.201 7.65 42.23 13.23
1/4/2023 2:45:00 PM 3.44 38.192 0.2 7.65 41.01 13.23
1/4/2023 3:00:00 PM 3.45 38.21 0.201 7.65 42.04 13.22
1/4/2023 3:15:00 PM 3.46 38.228 0.201 7.65 43.43 13.22
1/4/2023 3:30:00 PM 3.46 38.228 0.201 7.65 42.14 13.22
1/4/2023 3:45:00 PM 3.47 38.246 0.201 7.64 40.46 13.22
1/4/2023 4:00:00 PM 3.48 38.264 0.202 7.65 38.7 13.21
1/4/2023 4:15:00 PM 3.48 38.264 0.202 7.65 38.1 13.21
1/4/2023 4:30:00 PM 3.49 38.282 0.202 7.66 38.67 13.21
1/4/2023 4:45:00 PM 3.5 38.3 0.202 7.65 38.2 13.21
1/4/2023 5:00:00 PM 3.51 38.318 0.202 7.65 36.82 13.21
1/4/2023 5:15:00 PM 3.51 38.318 0.202 7.65 36.32 13.2
1/4/2023 5:30:00 PM 3.52 38.336 0.202 7.66 36.22 13.2
1/4/2023 5:45:00 PM 3.54 38.372 0.202 7.65 35.98 13.2
1/4/2023 6:00:00 PM 3.55 38.39 0.202 7.65 35.12 13.19
1/4/2023 6:15:00 PM 3.56 38.408 0.203 7.65 33.24 13.19
1/4/2023 6:30:00 PM 3.57 38.426 0.202 7.66 35.56 13.19
1/4/2023 6:45:00 PM 3.59 38.462 0.203 7.65 36.05 13.18
1/4/2023 7:00:00 PM 3.6 38.48 0.203 7.66 34.51 13.18
1/4/2023 7:15:00 PM 3.61 38.498 0.203 7.65 34.2 13.17
1/4/2023 7:30:00 PM 3.63 38.534 0.203 7.66 33.43 13.17
1/4/2023 7:45:00 PM 3.64 38.552 0.204 7.66 33 13.16
1/4/2023 8:00:00 PM 3.66 38.588 0.204 7.66 32.17 13.15
1/4/2023 8:15:00 PM 3.68 38.624 0.205 7.66 31.8 13.14
1/4/2023 8:30:00 PM 3.69 38.642 0.205 7.67 30.82 13.13
1/4/2023 8:45:00 PM 3.71 38.678 0.206 7.66 30.87 13.12
1/4/2023 9:00:00 PM 3.72 38.696 0.206 7.66 28.74 13.05
1/4/2023 9:15:00 PM 3.73 38.714 0.207 7.67 29.72 13.09
1/4/2023 9:30:00 PM 3.75 38.75 0.207 7.67 28.63 13.09
1/4/2023 9:45:00 PM 3.76 38.768 0.207 7.67 29.12 13.08
1/4/2023 10:00:00 PM 3.78 38.804 0.208 7.67 28.54 13.06
1/4/2023 10:15:00 PM 3.8 38.84 0.208 7.67 28.99 13.05
1/4/2023 10:30:00 PM 3.82 38.876 0.208 7.67 28.9 13.04
1/4/2023 10:45:00 PM 3.83 38.894 0.209 7.65 28.87 13.03
1/4/2023 11:00:00 PM 3.84 38.912 0.209 7.67 28.39 13.01
1/4/2023 11:15:00 PM 3.86 38.948 0.21 7.68 28.28 13
1/4/2023 11:30:00 PM 3.88 38.984 0.21 7.68 27.21 12.99
1/4/2023 11:45:00 PM 3.9 39.02 0.211 7.68 27.54 12.97
1/5/2023 12:00:00 AM 3.92 39.056 0.211 7.68 27.25 12.95
1/5/2023 12:15:00 AM 3.95 39.11 0.212 7.68 27.32 12.94
1/5/2023 12:30:00 AM 3.97 39.146 0.211 7.68 28.5 12.93
1/5/2023 12:45:00 AM 4 39.2 0.212 7.68 26.32 12.91
1/5/2023 1:00:00 AM 4.01 39.218 0.211 7.68 26.8 12.9
1/5/2023 1:15:00 AM 4.03 39.254 0.212 7.68 27.45 12.88
1/5/2023 1:30:00 AM 4.04 39.272 0.211 7.68 26.33 12.87
1/5/2023 1:45:00 AM 4.05 39.29 0.211 7.69 25.95 12.85
1/5/2023 2:00:00 AM 4.06 39.308 0.212 7.68 26.81 12.84
1/5/2023 2:15:00 AM 4.06 39.308 0.212 7.69 25.77 12.82
1/5/2023 2:30:00 AM 4.06 39.308 0.212 7.67 26.22 12.82
1/5/2023 2:45:00 AM 4.05 39.29 0.211 7.69 26.36 12.81
1/5/2023 3:00:00 AM 4.04 39.272 0.211 7.69 25.44 12.8
1/5/2023 3:15:00 AM 4.04 39.272 0.211 7.69 26.52 12.79
1/5/2023 3:30:00 AM 4.03 39.254 0.211 7.68 26.45 12.79
1/5/2023 3:45:00 AM 4.03 39.254 0.21 7.69 25.73 12.78
1/5/2023 4:00:00 AM 4.02 39.236 0.211 7.67 26.51 12.77
1/5/2023 4:15:00 AM 4.02 39.236 0.21 7.68 26.4 12.77
1/5/2023 4:30:00 AM 4.01 39.218 0.21 7.69 25.8 12.76
1/5/2023 4:45:00 AM 4.01 39.218 0.21 7.68 27.39 12.76
1/5/2023 5:00:00 AM 4.01 39.218 0.21 7.66 26.09 12.75
1/5/2023 5:15:00 AM 4.01 39.218 0.209 7.68 26.83 12.75
1/5/2023 5:30:00 AM 4.01 39.218 0.209 7.68 28.4 12.75
1/5/2023 5:45:00 AM 4 39.2 0.209 7.68 27.76 12.74
1/5/2023 6:00:00 AM 4 39.2 0.209 7.68 28.63 12.74
1/5/2023 6:15:00 AM 3.99 39.182 0.208 7.68 27.51 12.73
1/5/2023 6:30:00 AM 3.99 39.182 0.209 7.68 27.8 12.74
1/5/2023 6:45:00 AM 3.99 39.182 0.209 7.68 27.15 12.73
1/5/2023 7:00:00 AM 3.98 39.164 0.209 7.68 27.54 12.73
1/5/2023 7:15:00 AM 3.98 39.164 0.209 7.68 27.89 12.73
1/5/2023 7:30:00 AM 3.97 39.146 0.209 7.68 28.19 12.73
1/5/2023 7:45:00 AM 3.97 39.146 0.209 7.68 27.84 12.73
1/5/2023 8:00:00 AM 3.97 39.146 0.208 7.68 27.67 12.73
1/5/2023 8:15:00 AM 3.96 39.128 0.208 7.68 27.55 12.74
1/5/2023 8:30:00 AM 3.96 39.128 0.208 7.68 27.28 12.73
1/5/2023 8:45:00 AM 3.96 39.128 0.209 7.68 28.42 12.74
1/5/2023 9:00:00 AM 3.96 39.128 0.208 7.68 28.21 12.74
1/5/2023 9:15:00 AM 3.97 39.146 0.209 7.68 28.07 12.74
1/5/2023 9:30:00 AM 3.98 39.164 0.209 7.68 28.68 12.75
1/5/2023 9:45:00 AM 3.99 39.182 0.21 7.69 28.21 12.75
1/5/2023 10:00:00 AM 3.99 39.182 0.209 7.69 27.12 12.75
1/5/2023 10:15:00 AM 4 39.2 0.21 7.7 28.4 12.76
1/5/2023 10:30:00 AM 4.02 39.236 0.21 7.69 28.19 12.76
1/5/2023 10:45:00 AM 4.04 39.272 0.21 7.7 28.28 12.76
1/5/2023 11:00:00 AM 4.05 39.29 0.211 7.7 28.07 12.76
1/5/2023 11:15:00 AM 4.06 39.308 0.21 7.71 27.91 12.77
1/5/2023 11:30:00 AM 4.08 39.344 0.211 7.71 28.54 12.77
1/5/2023 11:45:00 AM 4.09 39.362 0.211 7.71 28.12 12.77
1/5/2023 12:00:00 PM 4.11 39.398 0.211 7.71 27.55 12.77
1/5/2023 12:15:00 PM 4.12 39.416 0.211 7.71 27.53 12.78
1/5/2023 12:30:00 PM 4.14 39.452 0.212 7.71 27.33 12.78
1/5/2023 12:45:00 PM 4.16 39.488 0.211 7.71 27.92 12.79
1/5/2023 1:00:00 PM 4.18 39.524 0.212 7.73 28.4 12.79
1/5/2023 1:15:00 PM 4.19 39.542 0.212 7.73 29.04 12.79
1/5/2023 1:30:00 PM 4.21 39.578 0.212 7.73 28.15 12.79
1/5/2023 1:45:00 PM 4.23 39.614 0.212 7.73 27.74 12.79
1/5/2023 2:00:00 PM 4.24 39.632 0.213 7.73 28.24 12.79
1/5/2023 2:15:00 PM 4.26 39.668 0.213 7.73 27.62 12.79
1/5/2023 2:30:00 PM 4.28 39.704 0.213 7.73 28.14 12.79
1/5/2023 2:45:00 PM 4.29 39.722 0.213 7.74 28.9 12.79
1/5/2023 3:00:00 PM 4.3 39.74 0.213 7.74 28.88 12.79
1/5/2023 3:15:00 PM 4.3 39.74 0.213 7.73 27.51 12.79
1/5/2023 3:30:00 PM 4.3 39.74 0.212 7.73 27.68 12.79
1/5/2023 3:45:00 PM 4.3 39.74 0.212 7.74 26.87 12.8
1/5/2023 4:00:00 PM 4.3 39.74 0.212 7.74 28.18 12.79
1/5/2023 4:15:00 PM 4.31 39.758 0.212 7.74 27.96 12.79
1/5/2023 4:30:00 PM 4.32 39.776 0.212 7.74 28.53 12.79
1/5/2023 4:45:00 PM 4.33 39.794 0.212 7.74 28.7 12.79
1/5/2023 5:00:00 PM 4.34 39.812 0.211 7.73 28.37 12.79
1/5/2023 5:15:00 PM 4.35 39.83 0.211 7.74 28.33 12.78
1/5/2023 5:30:00 PM 4.36 39.848 0.21 7.74 27.82 12.78
1/5/2023 5:45:00 PM 4.37 39.866 0.21 7.73 27.75 12.71
1/5/2023 6:00:00 PM 4.38 39.884 0.21 7.74 27.55 12.76
1/5/2023 6:15:00 PM 4.38 39.884 0.21 7.73 28.18 12.76
1/5/2023 6:30:00 PM 4.39 39.902 0.209 7.72 28.27 12.76
1/5/2023 6:45:00 PM 4.39 39.902 0.209 7.74 28.85 12.76
1/5/2023 7:00:00 PM 4.39 39.902 0.209 7.74 27.78 12.7
1/5/2023 7:15:00 PM 4.39 39.902 0.21 7.73 28.09 12.74
1/5/2023 7:30:00 PM 4.39 39.902 0.209 7.73 27.56 12.74
1/5/2023 7:45:00 PM 4.4 39.92 0.21 7.73 26.35 12.74
1/5/2023 8:00:00 PM 4.41 39.938 0.209 7.73 27.64 12.73
1/5/2023 8:15:00 PM 4.42 39.956 0.21 7.73 28.7 12.72
1/5/2023 8:30:00 PM 4.43 39.974 0.209 7.73 28.02 12.72
1/5/2023 8:45:00 PM 4.43 39.974 0.21 7.73 28.74 12.71
1/5/2023 9:00:00 PM 4.44 39.992 0.21 7.71 28.32 12.7
1/5/2023 9:15:00 PM 4.44 39.992 0.211 7.74 28.64 12.7
1/5/2023 9:30:00 PM 4.44 39.992 0.211 7.74 28.61 12.69
1/5/2023 9:45:00 PM 4.43 39.974 0.211 7.74 28.47 12.68
1/5/2023 10:00:00 PM 4.42 39.956 0.21 7.73 30.09 12.68
1/5/2023 10:15:00 PM 4.41 39.938 0.211 7.74 28.8 12.67
1/5/2023 10:30:00 PM 4.4 39.92 0.211 7.74 27.34 12.67
1/5/2023 10:45:00 PM 4.39 39.902 0.211 7.73 28.52 12.67
1/5/2023 11:00:00 PM 4.37 39.866 0.21 7.74 28.27 12.66
1/5/2023 11:15:00 PM 4.36 39.848 0.21 7.73 28.52 12.6
1/5/2023 11:30:00 PM 4.35 39.83 0.21 7.72 27.94 12.65
1/5/2023 11:45:00 PM 4.34 39.812 0.21 7.73 27.7 12.65
1/6/2023 12:00:00 AM 4.33 39.794 0.211 7.73 27.77 12.64
1/6/2023 12:15:00 AM 4.33 39.794 0.211 7.73 28.15 12.64
1/6/2023 12:30:00 AM 4.32 39.776 0.211 7.72 27.92 12.64
1/6/2023 12:45:00 AM 4.31 39.758 0.211 7.72 28.09 12.64
1/6/2023 1:00:00 AM 4.3 39.74 0.21 7.72 27.61 12.63
1/6/2023 1:15:00 AM 4.29 39.722 0.211 7.72 28.67 12.63
1/6/2023 1:30:00 AM 4.28 39.704 0.21 7.71 28.85 12.63
1/6/2023 1:45:00 AM 4.27 39.686 0.21 7.72 29.08 12.63
1/6/2023 2:00:00 AM 4.25 39.65 0.211 7.72 28.69 12.63
1/6/2023 2:15:00 AM 4.24 39.632 0.21 7.72 28.06 12.63
1/6/2023 2:30:00 AM 4.23 39.614 0.211 7.71 28.8 12.62
1/6/2023 2:45:00 AM 4.21 39.578 0.211 7.72 28.88 12.62
1/6/2023 3:00:00 AM 4.2 39.56 0.211 7.71 30.07 12.63
1/6/2023 3:15:00 AM 4.19 39.542 0.211 7.72 28.84 12.62
1/6/2023 3:30:00 AM 4.17 39.506 0.211 7.71 29.26 12.63
1/6/2023 3:45:00 AM 4.16 39.488 0.211 7.72 30.87 12.62
1/6/2023 4:00:00 AM 4.15 39.47 0.211 7.71 29.03 12.63
1/6/2023 4:15:00 AM 4.14 39.452 0.211 7.71 29.4 12.63
1/6/2023 4:30:00 AM 4.13 39.434 0.212 7.72 29.64 12.63
1/6/2023 4:45:00 AM 4.12 39.416 0.212 7.71 30.27 12.63
1/6/2023 5:00:00 AM 4.11 39.398 0.212 7.71 29.99 12.63
1/6/2023 5:15:00 AM 4.09 39.362 0.212 7.71 31.63 12.63
1/6/2023 5:30:00 AM 4.08 39.344 0.212 7.71 30.35 12.63
1/6/2023 5:45:00 AM 4.06 39.308 0.212 7.71 30.12 12.64
1/6/2023 6:00:00 AM 4.04 39.272 0.213 7.71 28.71 12.63
1/6/2023 6:15:00 AM 4.02 39.236 0.213 7.71 31.02 12.64
1/6/2023 6:30:00 AM 4.01 39.218 0.213 7.7 30.27 12.65
1/6/2023 6:45:00 AM 3.99 39.182 0.213 7.72 30.41 12.65
1/6/2023 7:00:00 AM 3.97 39.146 0.214 7.71 29.77 12.66
1/6/2023 7:15:00 AM 3.95 39.11 0.213 7.71 29.08 12.67
1/6/2023 7:30:00 AM 3.93 39.074 0.214 7.72 28.78 12.67
1/6/2023 7:45:00 AM 3.91 39.038 0.213 7.72 29.11 12.67
1/6/2023 8:00:00 AM 3.89 39.002 0.214 7.71 29.9 12.68
1/6/2023 8:15:00 AM 3.88 38.984 0.213 7.71 28.2 12.69
1/6/2023 8:30:00 AM 3.86 38.948 0.214 7.71 28.27 12.7
1/6/2023 8:45:00 AM 3.84 38.912 0.213 7.71 28.48 12.7
1/6/2023 9:00:00 AM 3.82 38.876 0.213 7.7 27.59 12.72
1/6/2023 9:15:00 AM 3.81 38.858 0.213 7.71 29.42 12.72
1/6/2023 9:30:00 AM 3.8 38.84 0.213 7.71 27.77 12.73
1/6/2023 9:45:00 AM 3.78 38.804 0.213 7.71 28.27 12.74
1/6/2023 10:00:00 AM 3.77 38.786 0.213 7.71 27.23 12.75
1/6/2023 10:15:00 AM 3.76 38.768 0.212 7.71 27.58 12.76
1/6/2023 10:30:00 AM 3.76 38.768 0.213 7.71 26.82 12.77
1/6/2023 10:45:00 AM 3.76 38.768 0.212 7.71 26.31 12.77
1/6/2023 11:00:00 AM 3.76 38.768 0.212 7.71 26.7 12.78
1/6/2023 11:15:00 AM 3.76 38.768 0.211 7.71 26.75 12.74
1/6/2023 11:30:00 AM 3.76 38.768 0.211 7.71 26.84 12.8
1/6/2023 11:45:00 AM 3.76 38.768 0.21 7.72 26.64 12.82
1/6/2023 12:00:00 PM 3.76 38.768 0.21 7.71 25.44 12.83
1/6/2023 12:15:00 PM 3.76 38.768 0.21 7.72 26.29 12.84
1/6/2023 12:30:00 PM 3.76 38.768 0.21 7.72 26.08 12.85
1/6/2023 12:45:00 PM 3.77 38.786 0.209 7.72 26.02 12.85
1/6/2023 1:00:00 PM 3.77 38.786 0.21 7.71 26.97 12.86
1/6/2023 1:15:00 PM 3.79 38.822 0.209 7.72 26.36 12.87
1/6/2023 1:30:00 PM 3.8 38.84 0.209 7.72 26.88 12.87
1/6/2023 1:45:00 PM 3.81 38.858 0.208 7.72 27.32 12.88
1/6/2023 2:00:00 PM 3.8 38.84 0.209 7.72 26.65 12.89
1/6/2023 2:15:00 PM 3.79 38.822 0.208 7.73 26.99 12.9
1/6/2023 2:30:00 PM 3.78 38.804 0.208 7.72 27 12.84
1/6/2023 2:45:00 PM 3.78 38.804 0.208 7.72 27.59 12.89
1/6/2023 3:00:00 PM 3.77 38.786 0.208 7.72 26.36 12.9
1/6/2023 3:15:00 PM 3.76 38.768 0.208 7.72 27.69 12.91
1/6/2023 3:30:00 PM 3.74 38.732 0.208 7.72 27.3 12.91
1/6/2023 3:45:00 PM 3.73 38.714 0.208 7.72 27.32 12.92
1/6/2023 4:00:00 PM 3.71 38.678 0.208 7.72 26.3 12.92
1/6/2023 4:15:00 PM 3.69 38.642 0.208 7.72 26.85 12.92
1/6/2023 4:30:00 PM 3.68 38.624 0.208 7.72 25.97 12.92
1/6/2023 4:45:00 PM 3.67 38.606 0.208 7.71 26.56 12.92
1/6/2023 5:00:00 PM 3.66 38.588 0.209 7.72 26.31 12.93
1/6/2023 5:15:00 PM 3.65 38.57 0.209 7.72 25.23 12.92
1/6/2023 5:30:00 PM 3.64 38.552 0.21 7.71 25.17 12.92
1/6/2023 5:45:00 PM 3.63 38.534 0.209 7.72 25.4 12.92
1/6/2023 6:00:00 PM 3.61 38.498 0.21 7.72 26.89 12.93
1/6/2023 6:15:00 PM 3.6 38.48 0.21 7.7 24.74 12.93
1/6/2023 6:30:00 PM 3.59 38.462 0.21 7.72 24.84 12.93
1/6/2023 6:45:00 PM 3.59 38.462 0.21 7.72 25.45 12.93
1/6/2023 7:00:00 PM 3.58 38.444 0.21 7.72 23.93 12.93
1/6/2023 7:15:00 PM 3.57 38.426 0.21 7.72 24.64 12.94
1/6/2023 7:30:00 PM 3.56 38.408 0.21 7.71 24.79 12.94
1/6/2023 7:45:00 PM 3.55 38.39 0.21 7.71 24.15 12.94
1/6/2023 8:00:00 PM 3.55 38.39 0.211 7.71 24.1 12.94
1/6/2023 8:15:00 PM 3.54 38.372 0.211 7.71 23.52 12.95
1/6/2023 8:30:00 PM 3.54 38.372 0.211 7.71 23.47 12.95
1/6/2023 8:45:00 PM 3.54 38.372 0.211 7.72 23.08 12.96
1/6/2023 9:00:00 PM 3.53 38.354 0.212 7.72 23.63 12.95
1/6/2023 9:15:00 PM 3.53 38.354 0.211 7.73 22.71 12.96
1/6/2023 9:30:00 PM 3.52 38.336 0.212 7.72 21.9 12.96
1/6/2023 9:45:00 PM 3.52 38.336 0.212 7.72 22.54 12.96
1/6/2023 10:00:00 PM 3.52 38.336 0.213 7.72 22.74 12.96
1/6/2023 10:15:00 PM 3.52 38.336 0.213 7.73 22.25 12.96
1/6/2023 10:30:00 PM 3.52 38.336 0.214 7.71 22.85 12.96
1/6/2023 10:45:00 PM 3.52 38.336 0.214 7.73 20.96 12.96
1/6/2023 11:00:00 PM 3.53 38.354 0.214 7.73 22.17 12.95
1/6/2023 11:15:00 PM 3.53 38.354 0.214 7.73 20.56 12.95
1/6/2023 11:30:00 PM 3.53 38.354 0.215 7.73 21.9 12.95
1/6/2023 11:45:00 PM 3.53 38.354 0.214 7.73 21.25 12.95
1/7/2023 12:00:00 AM 3.53 38.354 0.215 7.71 21.45 12.95
1/7/2023 12:15:00 AM 3.53 38.354 0.215 7.73 21.06 12.94
1/7/2023 12:30:00 AM 3.53 38.354 0.215 7.73 20.74 12.94
1/7/2023 12:45:00 AM 3.52 38.336 0.215 7.73 20.12 12.94
1/7/2023 1:00:00 AM 3.52 38.336 0.216 7.73 21.33 12.93
1/7/2023 1:15:00 AM 3.52 38.336 0.216 7.73 19.79 12.93
1/7/2023 1:30:00 AM 3.52 38.336 0.216 7.73 19.72 12.93
1/7/2023 1:45:00 AM 3.51 38.318 0.216 7.73 19.47 12.93
1/7/2023 2:00:00 AM 3.51 38.318 0.216 7.73 21.04 12.93
1/7/2023 2:15:00 AM 3.5 38.3 0.216 7.73 20.24 12.92
1/7/2023 2:30:00 AM 3.49 38.282 0.216 7.72 20.23 12.92
1/7/2023 2:45:00 AM 3.49 38.282 0.216 7.73 20.21 12.92
1/7/2023 3:00:00 AM 3.48 38.264 0.216 7.73 20.57 12.92
1/7/2023 3:15:00 AM 3.47 38.246 0.216 7.73 19.34 12.92
1/7/2023 3:30:00 AM 3.47 38.246 0.216 7.73 18.88 12.91
1/7/2023 3:45:00 AM 3.46 38.228 0.216 7.7 19.32 12.91
1/7/2023 4:00:00 AM 3.46 38.228 0.216 7.73 19.42 12.92
1/7/2023 4:15:00 AM 3.45 38.21 0.216 7.72 19.3 12.91
1/7/2023 4:30:00 AM 3.45 38.21 0.217 7.73 19.95 12.91
1/7/2023 4:45:00 AM 3.44 38.192 0.216 7.73 19.4 12.91
1/7/2023 5:00:00 AM 3.44 38.192 0.217 7.72 19.63 12.91
1/7/2023 5:15:00 AM 3.43 38.174 0.216 7.72 20.13 12.92
1/7/2023 5:30:00 AM 3.43 38.174 0.217 7.72 19.98 12.91
1/7/2023 5:45:00 AM 3.42 38.156 0.217 7.72 19.49 12.91
1/7/2023 6:00:00 AM 3.42 38.156 0.217 7.72 20.01 12.91
1/7/2023 6:15:00 AM 3.41 38.138 0.217 7.72 19.97 12.92
1/7/2023 6:30:00 AM 3.41 38.138 0.217 7.72 18.89 12.92
1/7/2023 6:45:00 AM 3.4 38.12 0.217 7.72 19.96 12.92
1/7/2023 7:00:00 AM 3.39 38.102 0.217 7.72 20.87 12.92
1/7/2023 7:15:00 AM 3.39 38.102 0.216 7.72 20.54 12.92
1/7/2023 7:30:00 AM 3.38 38.084 0.217 7.72 19.82 12.92
1/7/2023 7:45:00 AM 3.38 38.084 0.216 7.73 20.22 12.92
1/7/2023 8:00:00 AM 3.37 38.066 0.217 7.72 20.3 12.93
1/7/2023 8:15:00 AM 3.37 38.066 0.216 7.72 21.26 12.93
1/7/2023 8:30:00 AM 3.37 38.066 0.217 7.72 20.09 12.93
1/7/2023 8:45:00 AM 3.36 38.048 0.216 7.72 20.28 12.93
1/7/2023 9:00:00 AM 3.36 38.048 0.217 7.72 20.1 12.94
1/7/2023 9:15:00 AM 3.35 38.03 0.216 7.73 20.55 12.95
1/7/2023 9:30:00 AM 3.35 38.03 0.216 7.72 19.64 12.95
1/7/2023 9:45:00 AM 3.35 38.03 0.216 7.73 20.31 12.96
1/7/2023 10:00:00 AM 3.36 38.048 0.216 7.72 20.52 12.97
1/7/2023 10:15:00 AM 3.36 38.048 0.216 7.73 20.53 12.98
1/7/2023 10:30:00 AM 3.36 38.048 0.216 7.72 19.74 12.99
1/7/2023 10:45:00 AM 3.37 38.066 0.216 7.73 19.98 13
1/7/2023 11:00:00 AM 3.38 38.084 0.216 7.73 20.07 13.01
1/7/2023 11:15:00 AM 3.39 38.102 0.216 7.74 19.41 13.03
1/7/2023 11:30:00 AM 3.4 38.12 0.216 7.74 19.09 13.04
1/7/2023 11:45:00 AM 3.41 38.138 0.216 7.74 19.56 13.05
1/7/2023 12:00:00 PM 3.41 38.138 0.216 7.74 19.47 13.06
1/7/2023 12:15:00 PM 3.42 38.156 0.215 7.74 18.62 13
1/7/2023 12:30:00 PM 3.43 38.174 0.216 7.75 18.97 13.07
1/7/2023 12:45:00 PM 3.44 38.192 0.215 7.75 19.3 13.09
1/7/2023 1:00:00 PM 3.45 38.21 0.216 7.75 19.61 13.1
1/7/2023 1:15:00 PM 3.47 38.246 0.215 7.75 18.74 13.1
1/7/2023 1:30:00 PM 3.48 38.264 0.215 7.76 18.9 13.11
1/7/2023 1:45:00 PM 3.48 38.264 0.215 7.75 18.29 13.12
1/7/2023 2:00:00 PM 3.48 38.264 0.215 7.74 18.81 13.12
1/7/2023 2:15:00 PM 3.48 38.264 0.214 7.76 18.65 13.13
1/7/2023 2:30:00 PM 3.49 38.282 0.215 7.76 19.07 13.13
1/7/2023 2:45:00 PM 3.5 38.3 0.214 7.76 19.63 13.14
1/7/2023 3:00:00 PM 3.5 38.3 0.215 7.76 19.02 13.14
1/7/2023 3:15:00 PM 3.5 38.3 0.214 7.76 19.25 13.14
1/7/2023 3:30:00 PM 3.5 38.3 0.215 7.76 19.44 13.14
1/7/2023 3:45:00 PM 3.5 38.3 0.215 7.77 18.76 13.15
1/7/2023 4:00:00 PM 3.49 38.282 0.215 7.75 18.64 13.14
1/7/2023 4:15:00 PM 3.49 38.282 0.215 7.77 19.77 13.14
1/7/2023 4:30:00 PM 3.48 38.264 0.215 7.77 18.93 13.14
1/7/2023 4:45:00 PM 3.47 38.246 0.215 7.76 19.07 13.14
1/7/2023 5:00:00 PM 3.46 38.228 0.216 7.76 19.32 13.13
1/7/2023 5:15:00 PM 3.44 38.192 0.215 7.75 18.87 13.13
1/7/2023 5:30:00 PM 3.43 38.174 0.215 7.76 18.82 13.12
1/7/2023 5:45:00 PM 3.42 38.156 0.216 7.75 18.52 13.12
1/7/2023 6:00:00 PM 3.41 38.138 0.215 7.75 18.16 13.12
1/7/2023 6:15:00 PM 3.4 38.12 0.216 7.75 18.53 13.12
1/7/2023 6:30:00 PM 3.39 38.102 0.216 7.74 18.43 13.12
1/7/2023 6:45:00 PM 3.38 38.084 0.216 7.74 18.48 13.12
1/7/2023 7:00:00 PM 3.37 38.066 0.215 7.76 18.15 13.12
1/7/2023 7:15:00 PM 3.35 38.03 0.216 7.74 18.76 13.12
1/7/2023 7:30:00 PM 3.33 37.994 0.216 7.75 17.77 13.12
1/7/2023 7:45:00 PM 3.31 37.958 0.216 7.75 17.34 13.12
1/7/2023 8:00:00 PM 3.3 37.94 0.216 7.74 17.6 13.12
1/7/2023 8:15:00 PM 3.29 37.922 0.216 7.73 18.37 13.12
1/7/2023 8:30:00 PM 3.29 37.922 0.216 7.75 17.8 13.12
1/7/2023 8:45:00 PM 3.28 37.904 0.216 7.75 18.01 13.12
1/7/2023 9:00:00 PM 3.28 37.904 0.216 7.75 17.46 13.12
1/7/2023 9:15:00 PM 3.29 37.922 0.216 7.74 17.45 13.13
1/7/2023 9:30:00 PM 3.29 37.922 0.217 7.75 17.56 13.12
1/7/2023 9:45:00 PM 3.29 37.922 0.217 7.74 17.69 13.12
1/7/2023 10:00:00 PM 3.28 37.904 0.217 7.74 17.25 13.12
1/7/2023 10:15:00 PM 3.28 37.904 0.216 7.74 17.57 13.13
1/7/2023 10:30:00 PM 3.28 37.904 0.217 7.75 17.02 13.12
1/7/2023 10:45:00 PM 3.28 37.904 0.217 7.75 17.8 13.12
1/7/2023 11:00:00 PM 3.28 37.904 0.218 7.75 16.92 13.12
1/7/2023 11:15:00 PM 3.28 37.904 0.217 7.75 17.29 13.12
1/7/2023 11:30:00 PM 3.28 37.904 0.218 7.75 16.88 13.12
1/7/2023 11:45:00 PM 3.28 37.904 0.218 7.75 16.57 13.12
1/8/2023 12:00:00 AM 3.27 37.886 0.218 7.75 16.5 13.12
1/8/2023 12:15:00 AM 3.27 37.886 0.218 7.75 16.47 13.12
1/8/2023 12:30:00 AM 3.27 37.886 0.218 7.75 16.6 13.11
1/8/2023 12:45:00 AM 3.27 37.886 0.218 7.75 16.36 13.11
1/8/2023 1:00:00 AM 3.27 37.886 0.219 7.75 16.52 13.11
1/8/2023 1:15:00 AM 3.27 37.886 0.219 7.75 16.14 13.11
1/8/2023 1:30:00 AM 3.26 37.868 0.219 7.76 16.53 13.1
1/8/2023 1:45:00 AM 3.26 37.868 0.219 7.76 15.63 13.1
1/8/2023 2:00:00 AM 3.26 37.868 0.22 7.75 16.29 13.1
1/8/2023 2:15:00 AM 3.26 37.868 0.22 7.76 15.83 13.09
1/8/2023 2:30:00 AM 3.25 37.85 0.22 7.75 15.91 13.08
1/8/2023 2:45:00 AM 3.25 37.85 0.22 7.75 16.38 13.08
1/8/2023 3:00:00 AM 3.25 37.85 0.219 7.74 15.94 13.08
1/8/2023 3:15:00 AM 3.25 37.85 0.22 7.76 15.75 13.08
1/8/2023 3:30:00 AM 3.24 37.832 0.22 7.75 15.92 13.07
1/8/2023 3:45:00 AM 3.24 37.832 0.22 7.75 16.04 13.07
1/8/2023 4:00:00 AM 3.23 37.814 0.22 7.75 15.93 13.06
1/8/2023 4:15:00 AM 3.23 37.814 0.22 7.75 15.78 13.06
1/8/2023 4:30:00 AM 3.22 37.796 0.22 7.73 16.14 13.06
1/8/2023 4:45:00 AM 3.21 37.778 0.22 7.75 16.5 13.05
1/8/2023 5:00:00 AM 3.21 37.778 0.22 7.74 16.17 13.05
1/8/2023 5:15:00 AM 3.2 37.76 0.22 7.74 15.95 13.05
1/8/2023 5:30:00 AM 3.19 37.742 0.22 7.74 16.42 13.05
1/8/2023 5:45:00 AM 3.18 37.724 0.22 7.75 15.87 13.05
1/8/2023 6:00:00 AM 3.16 37.688 0.221 7.74 15.92 13.05
1/8/2023 6:15:00 AM 3.15 37.67 0.22 7.75 15.94 13.05
1/8/2023 6:30:00 AM 3.14 37.652 0.221 7.73 16.11 13.05
1/8/2023 6:45:00 AM 3.12 37.616 0.221 7.75 15.94 13.05
1/8/2023 7:00:00 AM 3.11 37.598 0.221 7.74 15.98 13.06
1/8/2023 7:15:00 AM 3.1 37.58 0.221 7.74 16.19 13.06
1/8/2023 7:30:00 AM 3.09 37.562 0.221 7.74 16.69 13.06
1/8/2023 7:45:00 AM 3.09 37.562 0.221 7.74 16.36 13.06
1/8/2023 8:00:00 AM 3.08 37.544 0.221 7.74 15.91 13.06
1/8/2023 8:15:00 AM 3.07 37.526 0.221 7.74 16.3 13.07
1/8/2023 8:30:00 AM 3.06 37.508 0.221 7.74 16.36 13.07
1/8/2023 8:45:00 AM 3.06 37.508 0.221 7.74 16.24 13.08
1/8/2023 9:00:00 AM 3.06 37.508 0.222 7.74 16.49 13.09
1/8/2023 9:15:00 AM 3.06 37.508 0.222 7.74 16.06 13.1
1/8/2023 9:30:00 AM 3.06 37.508 0.222 7.73 15.94 13.11
1/8/2023 9:45:00 AM 3.06 37.508 0.222 7.76 16.76 13.12
1/8/2023 10:00:00 AM 3.07 37.526 0.222 7.75 16.2 13.14
1/8/2023 10:15:00 AM 3.07 37.526 0.222 7.75 16.55 13.15
1/8/2023 10:30:00 AM 3.08 37.544 0.222 7.75 15.38 13.17
1/8/2023 10:45:00 AM 3.09 37.562 0.222 7.76 15.67 13.18
1/8/2023 11:00:00 AM 3.11 37.598 0.222 7.75 15.62 13.2
1/8/2023 11:15:00 AM 3.12 37.616 0.222 7.77 15.86 13.22
1/8/2023 11:30:00 AM 3.13 37.634 0.222 7.77 15.83 13.23
1/8/2023 11:45:00 AM 3.14 37.652 0.222 7.78 15.95 13.25
1/8/2023 12:00:00 PM 3.15 37.67 0.223 7.78 15.37 13.27
1/8/2023 12:15:00 PM 3.15 37.67 0.222 7.79 15.49 13.27
1/8/2023 12:30:00 PM 3.16 37.688 0.223 7.77 15.23 13.28
1/8/2023 12:45:00 PM 3.17 37.706 0.223 7.79 14.97 13.23
1/8/2023 1:00:00 PM 3.17 37.706 0.223 7.79 14.99 13.3
1/8/2023 1:15:00 PM 3.18 37.724 0.223 7.79 15.11 13.31
1/8/2023 1:30:00 PM 3.18 37.724 0.223 7.78 15.37 13.32
1/8/2023 1:45:00 PM 3.17 37.706 0.223 7.8 15.83 13.33
1/8/2023 2:00:00 PM 3.17 37.706 0.223 7.8 14.61 13.33
1/8/2023 2:15:00 PM 3.17 37.706 0.223 7.79 14.54 13.35
1/8/2023 2:30:00 PM 3.16 37.688 0.223 7.81 14.43 13.35
1/8/2023 2:45:00 PM 3.16 37.688 0.223 7.8 15.04 13.35
1/8/2023 3:00:00 PM 3.15 37.67 0.223 7.8 14.58 13.36
1/8/2023 3:15:00 PM 3.14 37.652 0.223 7.8 15 13.36
1/8/2023 3:30:00 PM 3.13 37.634 0.223 7.8 14.65 13.36
1/8/2023 3:45:00 PM 3.12 37.616 0.223 7.79 14.75 13.36
1/8/2023 4:00:00 PM 3.11 37.598 0.222 7.81 14.82 13.36
1/8/2023 4:15:00 PM 3.1 37.58 0.223 7.8 15.35 13.36
1/8/2023 4:30:00 PM 3.09 37.562 0.223 7.79 15.29 13.36
1/8/2023 4:45:00 PM 3.07 37.526 0.223 7.81 15.12 13.36
1/8/2023 5:00:00 PM 3.06 37.508 0.223 7.81 14.54 13.35
1/8/2023 5:15:00 PM 3.05 37.49 0.223 7.78 14.92 13.34
1/8/2023 5:30:00 PM 3.04 37.472 0.223 7.8 14.86 13.34
1/8/2023 5:45:00 PM 3.03 37.454 0.223 7.8 14.88 13.33
1/8/2023 6:00:00 PM 3.02 37.436 0.223 7.8 15.37 13.32
1/8/2023 6:15:00 PM 3.01 37.418 0.223 7.79 15.32 13.32
1/8/2023 6:30:00 PM 3 37.4 0.222 7.79 14.95 13.31
1/8/2023 6:45:00 PM 2.99 37.382 0.223 7.79 15.01 13.3
1/8/2023 7:00:00 PM 2.98 37.364 0.223 7.8 14.7 13.29
1/8/2023 7:15:00 PM 2.98 37.364 0.223 7.79 14.54 13.29
1/8/2023 7:30:00 PM 2.97 37.346 0.223 7.79 14.44 13.29
1/8/2023 7:45:00 PM 2.97 37.346 0.223 7.79 14.63 13.28
1/8/2023 8:00:00 PM 2.97 37.346 0.223 7.79 15.15 13.28
1/8/2023 8:15:00 PM 2.96 37.328 0.223 7.79 15.07 13.28
1/8/2023 8:30:00 PM 2.96 37.328 0.223 7.78 14.7 13.27
1/8/2023 8:45:00 PM 2.95 37.31 0.223 7.78 15.24 13.27
1/8/2023 9:00:00 PM 2.95 37.31 0.223 7.77 15.14 13.27
1/8/2023 9:15:00 PM 2.94 37.292 0.223 7.78 14.76 13.26
1/8/2023 9:30:00 PM 2.94 37.292 0.224 7.78 14.51 13.25
1/8/2023 9:45:00 PM 2.94 37.292 0.224 7.78 14.69 13.25
1/8/2023 10:00:00 PM 2.93 37.274 0.224 7.78 14.86 13.25
1/8/2023 10:15:00 PM 2.93 37.274 0.224 7.79 15.15 13.24
1/8/2023 10:30:00 PM 2.92 37.256 0.224 7.79 14.43 13.24
1/8/2023 10:45:00 PM 2.91 37.238 0.224 7.78 14.85 13.23
1/8/2023 11:00:00 PM 2.91 37.238 0.224 7.78 15.51 13.23
1/8/2023 11:15:00 PM 2.9 37.22 0.225 7.78 14.41 13.22
1/8/2023 11:30:00 PM 2.9 37.22 0.225 7.78 14.16 13.22
1/8/2023 11:45:00 PM 2.9 37.22 0.225 7.78 14.6 13.22
1/9/2023 12:00:00 AM 2.9 37.22 0.225 7.78 14.2 13.21
1/9/2023 12:15:00 AM 2.91 37.238 0.226 7.76 14.75 13.21
1/9/2023 12:30:00 AM 2.91 37.238 0.225 7.78 14.2 13.2
1/9/2023 12:45:00 AM 2.9 37.22 0.226 7.78 14.57 13.19
1/9/2023 1:00:00 AM 2.89 37.202 0.226 7.76 14.98 13.19
1/9/2023 1:15:00 AM 2.88 37.184 0.227 7.78 14.19 13.18
1/9/2023 1:30:00 AM 2.87 37.166 0.226 7.77 14.27 13.18
1/9/2023 1:45:00 AM 2.85 37.13 0.226 7.77 14.8 13.18
1/9/2023 2:00:00 AM 2.84 37.112 0.227 7.76 15.11 13.17
1/9/2023 2:15:00 AM 2.83 37.094 0.227 7.78 14.46 13.17
1/9/2023 2:30:00 AM 2.82 37.076 0.228 7.77 14.12 13.16
1/9/2023 2:45:00 AM 2.81 37.058 0.227 7.76 14.62 13.16
1/9/2023 3:00:00 AM 2.8 37.04 0.228 7.77 15.16 13.16
1/9/2023 3:15:00 AM 2.79 37.022 0.228 7.77 14.63 13.15
1/9/2023 3:30:00 AM 2.77 36.986 0.228 7.75 14.53 13.15
1/9/2023 3:45:00 AM 2.76 36.968 0.228 7.76 14.54 13.15
1/9/2023 4:00:00 AM 2.75 36.95 0.228 7.77 14.33 13.14
1/9/2023 4:15:00 AM 2.73 36.914 0.229 7.75 14.94 13.14
1/9/2023 4:30:00 AM 2.73 36.914 0.228 7.76 14.3 13.13
1/9/2023 4:45:00 AM 2.72 36.896 0.228 7.76 14.42 13.13
1/9/2023 5:00:00 AM 2.71 36.878 0.228 7.75 15.15 13.13
1/9/2023 5:15:00 AM 2.7 36.86 0.228 7.75 15.03 13.13
1/9/2023 5:30:00 AM 2.69 36.842 0.229 7.75 15.45 13.12
1/9/2023 5:45:00 AM 2.68 36.824 0.228 7.75 15.22 13.12
1/9/2023 6:00:00 AM 2.68 36.824 0.229 7.75 15.49 13.12
1/9/2023 6:15:00 AM 2.67 36.806 0.229 7.75 14.92 13.12
1/9/2023 6:30:00 AM 2.66 36.788 0.229 7.74 14.88 13.11
1/9/2023 6:45:00 AM 2.65 36.77 0.229 7.74 15.66 13.11
1/9/2023 7:00:00 AM 2.64 36.752 0.23 7.74 15.63 13.11
1/9/2023 7:15:00 AM 2.64 36.752 0.229 7.75 15.33 13.1
1/9/2023 7:30:00 AM 2.63 36.734 0.229 7.74 15.6 13.11
1/9/2023 7:45:00 AM 2.62 36.716 0.23 7.74 16.24 13.1
1/9/2023 8:00:00 AM 2.62 36.716 0.23 7.74 16.27 13.1
1/9/2023 8:15:00 AM 2.62 36.716 0.23 7.75 16.81 13.1
1/9/2023 8:30:00 AM 2.61 36.698 0.231 7.74 15.94 13.1
1/9/2023 8:45:00 AM 2.61 36.698 0.231 7.74 16.06 13.1
1/9/2023 9:00:00 AM 2.6 36.68 0.231 7.74 15.83 13.05
1/9/2023 9:15:00 AM 2.6 36.68 0.231 7.74 16.83 13.11
1/9/2023 9:30:00 AM 2.6 36.68 0.232 7.75 16.79 13.05
1/9/2023 9:45:00 AM 2.6 36.68 0.232 7.75 15.8 13.13
1/9/2023 10:00:00 AM 2.6 36.68 0.232 7.75 15.63 13.15
1/9/2023 10:15:00 AM 2.61 36.698 0.232 7.76 15.53 13.16
1/9/2023 10:30:00 AM 2.62 36.716 0.232 7.76 15.31 13.18
1/9/2023 10:45:00 AM 2.62 36.716 0.232 7.76 16.23 13.2
1/9/2023 11:00:00 AM 2.62 36.716 0.233 7.75 15.39 13.22
1/9/2023 11:15:00 AM 2.61 36.698 0.233 7.78 16.44 13.23
1/9/2023 11:30:00 AM 2.62 36.716 0.233 7.77 16.02 13.24
1/9/2023 11:45:00 AM 2.63 36.734 0.233 7.76 16.12 13.26
1/9/2023 12:00:00 PM 2.65 36.77 0.233 7.78 15.37 13.27
1/9/2023 12:15:00 PM 2.68 36.824 0.234 7.78 15.33 13.28
1/9/2023 12:30:00 PM 2.71 36.878 0.233 7.79 14.94 13.29
1/9/2023 12:45:00 PM 2.73 36.914 0.234 7.79 14.94 13.3
1/9/2023 1:00:00 PM 2.75 36.95 0.234 7.79 14.81 13.31
1/9/2023 1:15:00 PM 2.76 36.968 0.234 7.79 15.19 13.32
1/9/2023 1:30:00 PM 2.76 36.968 0.234 7.8 14.38 13.33
1/9/2023 1:45:00 PM 2.77 36.986 0.234 7.8 14.67 13.33
1/9/2023 2:00:00 PM 2.78 37.004 0.234 7.8 14.5 13.34
1/9/2023 2:15:00 PM 2.79 37.022 0.235 7.81 14.19 13.34
1/9/2023 2:30:00 PM 2.8 37.04 0.234 7.81 15.24 13.35
1/9/2023 2:45:00 PM 2.81 37.058 0.235 7.8 15.53 13.36
1/9/2023 3:00:00 PM 2.82 37.076 0.234 7.8 15.07 13.37
1/9/2023 3:15:00 PM 2.83 37.094 0.234 7.82 14.73 13.37
1/9/2023 3:30:00 PM 2.83 37.094 0.235 7.82 15.15 13.37
1/9/2023 3:45:00 PM 2.83 37.094 0.235 7.82 14.96 13.37
1/9/2023 4:00:00 PM 2.83 37.094 0.235 7.83 14.58 13.38
1/9/2023 4:15:00 PM 2.82 37.076 0.235 7.82 14.57 13.37
1/9/2023 4:30:00 PM 2.81 37.058 0.235 7.82 13.89 13.37
1/9/2023 4:45:00 PM 2.79 37.022 0.235 7.81 13.69 13.37
1/9/2023 5:00:00 PM 2.78 37.004 0.235 7.83 14.71 13.37
1/9/2023 5:15:00 PM 2.77 36.986 0.235 7.82 14.85 13.36
1/9/2023 5:30:00 PM 2.75 36.95 0.235 7.81 15.65 13.35
1/9/2023 5:45:00 PM 2.74 36.932 0.235 7.83 14.61 13.33
1/9/2023 6:00:00 PM 2.73 36.914 0.235 7.82 14.01 13.33
1/9/2023 6:15:00 PM 2.72 36.896 0.236 7.82 13.84 13.33
1/9/2023 6:30:00 PM 2.71 36.878 0.235 7.82 13.87 13.33
1/9/2023 6:45:00 PM 2.7 36.86 0.235 7.81 13.92 13.32
1/9/2023 7:00:00 PM 2.69 36.842 0.235 7.82 14.29 13.32
1/9/2023 7:15:00 PM 2.69 36.842 0.236 7.81 14.46 13.32
1/9/2023 7:30:00 PM 2.68 36.824 0.235 7.82 14.19 13.31
1/9/2023 7:45:00 PM 2.67 36.806 0.235 7.81 14.14 13.3
1/9/2023 8:00:00 PM 2.67 36.806 0.235 7.81 13.64 13.31
1/9/2023 8:15:00 PM 2.67 36.806 0.235 7.81 14.02 13.31
1/9/2023 8:30:00 PM 2.67 36.806 0.236 7.81 13.82 13.3
1/9/2023 8:45:00 PM 2.67 36.806 0.235 7.81 13.27 13.3
1/9/2023 9:00:00 PM 2.68 36.824 0.236 7.81 13.9 13.29
1/9/2023 9:15:00 PM 2.68 36.824 0.236 7.8 13.74 13.29
1/9/2023 9:30:00 PM 2.69 36.842 0.236 7.81 13.13 13.29
1/9/2023 9:45:00 PM 2.7 36.86 0.235 7.81 13.68 13.28
1/9/2023 10:00:00 PM 2.71 36.878 0.236 7.8 13.39 13.27
1/9/2023 10:15:00 PM 2.71 36.878 0.236 7.81 13.61 13.27
1/9/2023 10:30:00 PM 2.72 36.896 0.236 7.81 13.12 13.26
1/9/2023 10:45:00 PM 2.73 36.914 0.236 7.8 13.89 13.26
1/9/2023 11:00:00 PM 2.73 36.914 0.236 7.81 14.44 13.26
1/9/2023 11:15:00 PM 2.73 36.914 0.236 7.81 13.67 13.26
1/9/2023 11:30:00 PM 2.73 36.914 0.237 7.8 13.55 13.25
1/9/2023 11:45:00 PM 2.74 36.932 0.236 7.8 13.18 13.25
1/10/2023 12:00:00 AM 2.74 36.932 0.237 7.8 13.69 13.25
1/10/2023 12:15:00 AM 2.74 36.932 0.236 7.8 14.44 13.25
1/10/2023 12:30:00 AM 2.75 36.95 0.236 7.8 13.07 13.24
1/10/2023 12:45:00 AM 2.75 36.95 0.236 7.8 13.11 13.24
1/10/2023 1:00:00 AM 2.75 36.95 0.237 7.81 13.55 13.23
1/10/2023 1:15:00 AM 2.75 36.95 0.236 7.8 13.7 13.22
1/10/2023 1:30:00 AM 2.76 36.968 0.237 7.81 12.96 13.22
1/10/2023 1:45:00 AM 2.76 36.968 0.237 7.81 13.15 13.22
1/10/2023 2:00:00 AM 2.76 36.968 0.237 7.81 13.6 13.21
1/10/2023 2:15:00 AM 2.76 36.968 0.232 7.8 13.92 13.21
1/10/2023 2:30:00 AM 2.76 36.968 0.235 7.81 13.7 13.2
1/10/2023 2:45:00 AM 2.77 36.986 0.236 7.8 12.9 13.2
1/10/2023 3:00:00 AM 2.77 36.986 0.236 7.8 13.03 13.19
1/10/2023 3:15:00 AM 2.77 36.986 0.236 7.8 13.08 13.19
1/10/2023 3:30:00 AM 2.78 37.004 0.236 7.8 13.37 13.18
1/10/2023 3:45:00 AM 2.78 37.004 0.236 7.8 13.26 13.17
1/10/2023 4:00:00 AM 2.78 37.004 0.236 7.8 13.29 13.16
1/10/2023 4:15:00 AM 2.78 37.004 0.236 7.8 13.31 13.16
1/10/2023 4:30:00 AM 2.77 36.986 0.236 7.79 13.38 13.16
1/10/2023 4:45:00 AM 2.77 36.986 0.236 7.8 13.43 13.16
1/10/2023 5:00:00 AM 2.76 36.968 0.237 7.79 12.76 13.15
1/10/2023 5:15:00 AM 2.76 36.968 0.236 7.78 12.87 13.14
1/10/2023 5:30:00 AM 2.75 36.95 0.237 7.8 13.33 13.14
1/10/2023 5:45:00 AM 2.74 36.932 0.236 7.79 13.47 13.14
1/10/2023 6:00:00 AM 2.73 36.914 0.237 7.79 13.72 13.14
1/10/2023 6:15:00 AM 2.72 36.896 0.236 7.79 13.48 13.13
1/10/2023 6:30:00 AM 2.71 36.878 0.237 7.79 13.03 13.13
1/10/2023 6:45:00 AM 2.71 36.878 0.237 7.79 13.26 13.13
1/10/2023 7:00:00 AM 2.7 36.86 0.237 7.78 13.12 13.13
1/10/2023 7:15:00 AM 2.69 36.842 0.237 7.78 13.52 13.12
1/10/2023 7:30:00 AM 2.69 36.842 0.237 7.78 12.94 13.12
1/10/2023 7:45:00 AM 2.68 36.824 0.237 7.78 13.88 13.12
1/10/2023 8:00:00 AM 2.68 36.824 0.237 7.78 13.65 13.13
1/10/2023 8:15:00 AM 2.67 36.806 0.237 7.77 14.05 13.12
1/10/2023 8:30:00 AM 2.67 36.806 0.238 7.79 14.47 13.11
1/10/2023 8:45:00 AM 2.67 36.806 0.238 7.78 13.65 13.12
1/10/2023 9:00:00 AM 2.67 36.806 0.238 7.79 13.07 13.12
1/10/2023 9:15:00 AM 2.67 36.806 0.238 7.78 13.19 13.12
1/10/2023 9:30:00 AM 2.67 36.806 0.238 7.78 12.74 13.13
1/10/2023 9:45:00 AM 2.67 36.806 0.239 7.78 12.75 13.14
1/10/2023 10:00:00 AM 2.67 36.806 0.238 7.79 12.88 13.14
1/10/2023 10:15:00 AM 2.67 36.806 0.239 7.79 13.05 13.16
1/10/2023 10:30:00 AM 2.68 36.824 0.239 7.79 12.88 13.17
1/10/2023 10:45:00 AM 2.68 36.824 0.239 7.79 13.01 13.18
1/10/2023 11:00:00 AM 2.69 36.842 0.24 7.79 12.89 13.2
1/10/2023 11:15:00 AM 2.69 36.842 0.24 7.8 12.12 13.2
1/10/2023 11:30:00 AM 2.7 36.86 0.24 7.8 12.02 13.21
1/10/2023 11:45:00 AM 2.7 36.86 0.239 7.8 12.41 13.23
1/10/2023 12:00:00 PM 2.71 36.878 0.24 7.8 12.93 13.24
1/10/2023 12:15:00 PM 2.71 36.878 0.24 7.81 12.26 13.25
1/10/2023 12:30:00 PM 2.71 36.878 0.24 7.81 11.71 13.26
1/10/2023 12:45:00 PM 2.72 36.896 0.24 7.82 11.59 13.27
1/10/2023 1:00:00 PM 2.72 36.896 0.241 7.82 11.41 13.28
1/10/2023 1:15:00 PM 2.73 36.914 0.24 7.81 11 13.28
1/10/2023 1:30:00 PM 2.73 36.914 0.241 7.81 11.3 13.29
1/10/2023 1:45:00 PM 2.73 36.914 0.24 7.83 11.11 13.3
1/10/2023 2:00:00 PM 2.73 36.914 0.24 7.83 11.25 13.31
1/10/2023 2:15:00 PM 2.73 36.914 0.241 7.82 11.4 13.31
1/10/2023 2:30:00 PM 2.73 36.914 0.241 7.83 11.2 13.33
1/10/2023 2:45:00 PM 2.73 36.914 0.241 7.83 11.27 13.33
1/10/2023 3:00:00 PM 2.74 36.932 0.241 7.83 10.81 13.34
1/10/2023 3:15:00 PM 2.74 36.932 0.241 7.83 10.86 13.35
1/10/2023 3:30:00 PM 2.74 36.932 0.241 7.84 11.22 13.35
1/10/2023 3:45:00 PM 2.74 36.932 0.241 7.84 11.8 13.36
1/10/2023 4:00:00 PM 2.74 36.932 0.241 7.82 12.04 13.35
1/10/2023 4:15:00 PM 2.73 36.914 0.241 7.84 12.16 13.35
1/10/2023 4:30:00 PM 2.73 36.914 0.242 7.84 12.12 13.35
1/10/2023 4:45:00 PM 2.72 36.896 0.242 7.83 13.06 13.35
1/10/2023 5:00:00 PM 2.71 36.878 0.242 7.83 12.81 13.34
1/10/2023 5:15:00 PM 2.71 36.878 0.241 7.83 11.46 13.33
1/10/2023 5:30:00 PM 2.7 36.86 0.242 7.83 10.85 13.33
1/10/2023 5:45:00 PM 2.69 36.842 0.242 7.83 10.8 13.31
1/10/2023 6:00:00 PM 2.69 36.842 0.242 7.83 11 13.3
1/10/2023 6:15:00 PM 2.68 36.824 0.242 7.82 10.58 13.3
1/10/2023 6:30:00 PM 2.67 36.806 0.242 7.82 10.78 13.3
1/10/2023 6:45:00 PM 2.67 36.806 0.242 7.81 11.08 13.29
1/10/2023 7:00:00 PM 2.66 36.788 0.243 7.83 10.56 13.28
1/10/2023 7:15:00 PM 2.66 36.788 0.242 7.82 10.84 13.27
1/10/2023 7:30:00 PM 2.65 36.77 0.243 7.82 10.97 13.27
1/10/2023 7:45:00 PM 2.65 36.77 0.243 7.82 10.71 13.27
1/10/2023 8:00:00 PM 2.64 36.752 0.243 7.81 10.63 13.26
1/10/2023 8:15:00 PM 2.64 36.752 0.243 7.81 11.5 13.26
1/10/2023 8:30:00 PM 2.63 36.734 0.243 7.81 11.02 13.26
1/10/2023 8:45:00 PM 2.63 36.734 0.243 7.81 10.88 13.25
1/10/2023 9:00:00 PM 2.62 36.716 0.243 7.81 10.85 13.26
1/10/2023 9:15:00 PM 2.61 36.698 0.243 7.81 10.81 13.25
1/10/2023 9:30:00 PM 2.61 36.698 0.243 7.81 10.94 13.25
1/10/2023 9:45:00 PM 2.6 36.68 0.243 7.81 10.77 13.25
1/10/2023 10:00:00 PM 2.59 36.662 0.243 7.81 11.09 13.25
1/10/2023 10:15:00 PM 2.59 36.662 0.243 7.8 10.59 13.24
1/10/2023 10:30:00 PM 2.58 36.644 0.243 7.8 10.57 13.25
1/10/2023 10:45:00 PM 2.57 36.626 0.244 7.8 10.57 13.25
1/10/2023 11:00:00 PM 2.57 36.626 0.243 7.8 10.75 13.25
1/10/2023 11:15:00 PM 2.56 36.608 0.243 7.8 10.77 13.24
1/10/2023 11:30:00 PM 2.56 36.608 0.243 7.8 10.8 13.25
1/10/2023 11:45:00 PM 2.55 36.59 0.244 7.8 10.53 13.24
1/11/2023 12:00:00 AM 2.54 36.572 0.243 7.79 10.74 13.25
1/11/2023 12:15:00 AM 2.54 36.572 0.244 7.81 10.62 13.25
1/11/2023 12:30:00 AM 2.53 36.554 0.244 7.79 10.58 13.25
1/11/2023 12:45:00 AM 2.53 36.554 0.244 7.81 10.4 13.25
1/11/2023 1:00:00 AM 2.52 36.536 0.244 7.8 10.42 13.25
1/11/2023 1:15:00 AM 2.52 36.536 0.244 7.8 10.44 13.25
1/11/2023 1:30:00 AM 2.51 36.518 0.244 7.8 10.66 13.25
1/11/2023 1:45:00 AM 2.51 36.518 0.245 7.8 10.86 13.24
1/11/2023 2:00:00 AM 2.5 36.5 0.245 7.8 10.79 13.24
1/11/2023 2:15:00 AM 2.5 36.5 0.245 7.8 10.83 13.23
1/11/2023 2:30:00 AM 2.49 36.482 0.245 7.8 10.21 13.24
1/11/2023 2:45:00 AM 2.49 36.482 0.246 7.8 10.24 13.24
1/11/2023 3:00:00 AM 2.48 36.464 0.245 7.8 10.28 13.24
1/11/2023 3:15:00 AM 2.48 36.464 0.245 7.8 10.6 13.24
1/11/2023 3:30:00 AM 2.47 36.446 0.245 7.8 10.31 13.24
1/11/2023 3:45:00 AM 2.46 36.428 0.246 7.8 10.39 13.24
1/11/2023 4:00:00 AM 2.45 36.41 0.246 7.8 10.07 13.25
1/11/2023 4:15:00 AM 2.45 36.41 0.247 7.8 10.04 13.24
1/11/2023 4:30:00 AM 2.44 36.392 0.246 7.8 9.81 13.24
1/11/2023 4:45:00 AM 2.43 36.374 0.247 7.8 10.47 13.24
1/11/2023 5:00:00 AM 2.42 36.356 0.247 7.8 10.12 13.23
1/11/2023 5:15:00 AM 2.42 36.356 0.247 7.8 9.64 13.23
1/11/2023 5:30:00 AM 2.41 36.338 0.248 7.8 9.95 13.23
1/11/2023 5:45:00 AM 2.41 36.338 0.248 7.8 10.14 13.24
1/11/2023 6:00:00 AM 2.4 36.32 0.248 7.8 9.54 13.23
1/11/2023 6:15:00 AM 2.4 36.32 0.248 7.78 10.04 13.24
1/11/2023 6:30:00 AM 2.4 36.32 0.248 7.8 10.45 13.23
1/11/2023 6:45:00 AM 2.39 36.302 0.248 7.81 10.21 13.23
1/11/2023 7:00:00 AM 2.39 36.302 0.248 7.81 9.92 13.22
1/11/2023 7:15:00 AM 2.39 36.302 0.249 7.8 9.98 13.23
1/11/2023 7:30:00 AM 2.38 36.284 0.249 7.8 10.48 13.23
1/11/2023 7:45:00 AM 2.38 36.284 0.249 7.8 10.17 13.23
1/11/2023 8:00:00 AM 2.38 36.284 0.249 7.8 10.3 13.23
1/11/2023 8:15:00 AM 2.38 36.284 0.25 7.8 9.89 13.22
1/11/2023 8:30:00 AM 2.37 36.266 0.249 7.8 10.06 13.22
1/11/2023 8:45:00 AM 2.37 36.266 0.249 7.8 10.08 13.24
1/11/2023 9:00:00 AM 2.38 36.284 0.25 7.8 10.3 13.25
1/11/2023 9:15:00 AM 2.39 36.302 0.25 7.8 10.04 13.25
1/11/2023 9:30:00 AM 2.4 36.32 0.249 7.81 10.12 13.28
1/11/2023 9:45:00 AM 2.41 36.338 0.25 7.81 10.38 13.3
1/11/2023 10:00:00 AM 2.42 36.356 0.25 7.81 10.58 13.31
1/11/2023 10:15:00 AM 2.44 36.392 0.25 7.81 9.94 13.33
1/11/2023 10:30:00 AM 2.46 36.428 0.25 7.82 9.95 13.34
1/11/2023 10:45:00 AM 2.48 36.464 0.25 7.82 10.05 13.36
1/11/2023 11:00:00 AM 2.51 36.518 0.251 7.83 9.92 13.39
1/11/2023 11:15:00 AM 2.54 36.572 0.25 7.83 9.92 13.4
1/11/2023 11:30:00 AM 2.57 36.626 0.25 7.84 9.95 13.41
1/11/2023 11:45:00 AM 2.6 36.68 0.25 7.84 9.81 13.44
1/11/2023 12:00:00 PM 2.63 36.734 0.251 7.84 9.87 13.45
1/11/2023 12:15:00 PM 2.67 36.806 0.25 7.85 9.94 13.46
1/11/2023 12:30:00 PM 2.71 36.878 0.25 7.85 9.7 13.48
1/11/2023 12:45:00 PM 2.74 36.932 0.25 7.86 9.73 13.48
1/11/2023 1:00:00 PM 2.78 37.004 0.25 7.86 9.89 13.5
1/11/2023 1:15:00 PM 2.81 37.058 0.25 7.87 9.73 13.51
1/11/2023 1:30:00 PM 2.84 37.112 0.25 7.87 9.96 13.53
1/11/2023 1:45:00 PM 2.86 37.148 0.251 7.88 10.22 13.53
1/11/2023 2:00:00 PM 2.88 37.184 0.25 7.88 9.74 13.54
1/11/2023 2:15:00 PM 2.9 37.22 0.25 7.88 9.72 13.54
1/11/2023 2:30:00 PM 2.92 37.256 0.25 7.89 9.63 13.56
1/11/2023 2:45:00 PM 2.94 37.292 0.25 7.89 9.74 13.57
1/11/2023 3:00:00 PM 2.95 37.31 0.251 7.89 9.8 13.57
1/11/2023 3:15:00 PM 2.97 37.346 0.251 7.9 9.67 13.59
1/11/2023 3:30:00 PM 2.98 37.364 0.251 7.9 9.72 13.59
1/11/2023 3:45:00 PM 2.99 37.382 0.251 7.9 9.73 13.59
1/11/2023 4:00:00 PM 2.99 37.382 0.251 7.89 10.06 13.59
1/11/2023 4:15:00 PM 2.99 37.382 0.251 7.91 9.57 13.58
1/11/2023 4:30:00 PM 2.99 37.382 0.251 7.91 10.16 13.57
1/11/2023 4:45:00 PM 2.98 37.364 0.251 7.9 9.58 13.56
1/11/2023 5:00:00 PM 2.98 37.364 0.251 7.89 9.86 13.53
1/11/2023 5:15:00 PM 2.97 37.346 0.252 7.91 10.06 13.53
1/11/2023 5:30:00 PM 2.96 37.328 0.251 7.9 9.97 13.52
1/11/2023 5:45:00 PM 2.95 37.31 0.251 7.9 9.81 13.5
1/11/2023 6:00:00 PM 2.94 37.292 0.251 7.9 9.61 13.49
1/11/2023 6:15:00 PM 2.93 37.274 0.252 7.89 10.18 13.47
1/11/2023 6:30:00 PM 2.91 37.238 0.251 7.89 10.12 13.46
1/11/2023 6:45:00 PM 2.9 37.22 0.252 7.88 9.47 13.45
1/11/2023 7:00:00 PM 2.89 37.202 0.252 7.88 9.46 13.43
1/11/2023 7:15:00 PM 2.88 37.184 0.252 7.87 9.53 13.43
1/11/2023 7:30:00 PM 2.86 37.148 0.252 7.87 9.88 13.41
1/11/2023 7:45:00 PM 2.85 37.13 0.252 7.87 9.89 13.4
1/11/2023 8:00:00 PM 2.84 37.112 0.252 7.87 9.78 13.39
1/11/2023 8:15:00 PM 2.83 37.094 0.252 7.87 9.75 13.39
1/11/2023 8:30:00 PM 2.82 37.076 0.252 7.86 9.9 13.38
1/11/2023 8:45:00 PM 2.82 37.076 0.253 7.87 9.91 13.37
1/11/2023 9:00:00 PM 2.81 37.058 0.252 7.86 9.68 13.37
1/11/2023 9:15:00 PM 2.8 37.04 0.253 7.86 10.14 13.36
1/11/2023 9:30:00 PM 2.79 37.022 0.252 7.86 9.96 13.34
1/11/2023 9:45:00 PM 2.78 37.004 0.253 7.86 9.97 13.34
1/11/2023 10:00:00 PM 2.76 36.968 0.253 7.84 10.18 13.34
1/11/2023 10:15:00 PM 2.75 36.95 0.253 7.86 10.03 13.33
1/11/2023 10:30:00 PM 2.74 36.932 0.252 7.85 10.18 13.32
1/11/2023 10:45:00 PM 2.73 36.914 0.252 7.85 9.91 13.32
1/11/2023 11:00:00 PM 2.72 36.896 0.252 7.85 10.19 13.31
1/11/2023 11:15:00 PM 2.72 36.896 0.252 7.85 9.87 13.31
1/11/2023 11:30:00 PM 2.72 36.896 0.252 7.85 10.02 13.3
1/11/2023 11:45:00 PM 2.72 36.896 0.253 7.85 9.9 13.29
1/12/2023 12:00:00 AM 2.73 36.914 0.252 7.84 10.12 13.29
1/12/2023 12:15:00 AM 2.74 36.932 0.252 7.84 10.25 13.3
1/12/2023 12:30:00 AM 2.75 36.95 0.252 7.83 10.36 13.29
1/12/2023 12:45:00 AM 2.76 36.968 0.252 7.85 10.69 13.28
1/12/2023 1:00:00 AM 2.77 36.986 0.252 7.85 10.47 13.28
1/12/2023 1:15:00 AM 2.78 37.004 0.252 7.84 10.1 13.26
1/12/2023 1:30:00 AM 2.79 37.022 0.252 7.84 10.43 13.26
1/12/2023 1:45:00 AM 2.8 37.04 0.252 7.84 10.26 13.24
1/12/2023 2:00:00 AM 2.81 37.058 0.251 7.84 10.55 13.23
1/12/2023 2:15:00 AM 2.82 37.076 0.251 7.84 10.79 13.24
1/12/2023 2:30:00 AM 2.83 37.094 0.251 7.84 10.49 13.24
1/12/2023 2:45:00 AM 2.84 37.112 0.251 7.84 11.05 13.22
1/12/2023 3:00:00 AM 2.85 37.13 0.251 7.84 10.8 13.23
1/12/2023 3:15:00 AM 2.85 37.13 0.251 7.84 10.98 13.22
1/12/2023 3:30:00 AM 2.86 37.148 0.251 7.84 10.86 13.21
1/12/2023 3:45:00 AM 2.86 37.148 0.251 7.84 10.75 13.21
1/12/2023 4:00:00 AM 2.87 37.166 0.251 7.83 10.69 13.2
1/12/2023 4:15:00 AM 2.87 37.166 0.25 7.83 11.37 13.19
1/12/2023 4:30:00 AM 2.88 37.184 0.251 7.84 11.26 13.18
1/12/2023 4:45:00 AM 2.88 37.184 0.251 7.83 11.58 13.18
1/12/2023 5:00:00 AM 2.88 37.184 0.251 7.83 11.06 13.16
1/12/2023 5:15:00 AM 2.89 37.202 0.25 7.83 11.26 13.16
1/12/2023 5:30:00 AM 2.89 37.202 0.25 7.83 11.63 13.15
1/12/2023 5:45:00 AM 2.89 37.202 0.25 7.83 11.48 13.14
1/12/2023 6:00:00 AM 2.89 37.202 0.25 7.83 11.49 13.13
1/12/2023 6:15:00 AM 2.89 37.202 0.25 7.82 12.01 13.13
1/12/2023 6:30:00 AM 2.89 37.202 0.25 7.82 11.13 13.12
1/12/2023 6:45:00 AM 2.9 37.22 0.251 7.82 11.4 13.11
1/12/2023 7:00:00 AM 2.9 37.22 0.25 7.82 11.49 13.1
1/12/2023 7:15:00 AM 2.91 37.238 0.25 7.82 11.56 13.09
1/12/2023 7:30:00 AM 2.91 37.238 0.251 7.82 11.67 13.09
1/12/2023 7:45:00 AM 2.91 37.238 0.25 7.81 11.42 13.09
1/12/2023 8:00:00 AM 2.91 37.238 0.25 7.82 11.75 13.08
1/12/2023 8:15:00 AM 2.92 37.256 0.249 7.81 12.14 13.07
1/12/2023 8:30:00 AM 2.92 37.256 0.249 7.81 11.73 13.06
1/12/2023 8:45:00 AM 2.93 37.274 0.249 7.81 11.79 13.07
1/12/2023 9:00:00 AM 2.93 37.274 0.249 7.81 11.93 13.07
1/12/2023 9:15:00 AM 2.94 37.292 0.249 7.81 11.99 13.07
1/12/2023 9:30:00 AM 2.95 37.31 0.249 7.81 12.13 13.08
1/12/2023 9:45:00 AM 2.96 37.328 0.249 7.81 11.94 13.08
1/12/2023 10:00:00 AM 2.98 37.364 0.249 7.81 12.03 13.09

These are provisional data and have not been subject to a quality assurance process, but rather are the raw data reported by the instrument.
H: value is above sensor operating range
L: value is below sensor operating range
Offline: station is not reporting data
NC: parameter is not collected at site

Data Availability & Limitations

Uncertainty and potential for error can be associated with environmental monitoring data. Provisional data have not been subject to a quality assurance process, but rather are the raw data reported by the instrument. Data users are cautioned to consider carefully the provisional nature of the information before using it for decisions that concern personal or public safety or the conduct of business that involves substantial monetary or operational consequences.

Approved data are currently available by request by emailing: srbc@srbc.net. Approved data have been subject to a quality assurance process to correct for equipment or fouling drift. Data recorded during equipment malfunctions have been removed.

View Historical Stations that have been discontinued.